<?xml version="1.0" encoding="UTF-8" standalone="no" ?>
<gpx xmlns="http://www.topografix.com/GPX/1/1" xmlns:xsi="http://www.w3.org/2001/XMLSchema-instance" xsi:schemaLocation="http://www.topografix.com/GPX/1/1 http://www.topografix.com/GPX/1/1/gpx.xsd" version="1.1" creator="VisuGPX - https://www.visugpx.com">
  <metadata>
    <name>tour du 14 juillet</name>
    <desc><![CDATA[petit tour avec ma femme ballade sympathique et abrité dans la foret a cause du vent]]></desc>
  </metadata>
  <trk>
    <name><![CDATA[20190714_100259.gpx]]></name>
    <trkseg>
      <trkpt lat="48.60604" lon="2.56353">
        <ele>133</ele>
        <time>2019-07-14T08:13:57Z</time>
      </trkpt>
      <trkpt lat="48.60604" lon="2.56353">
        <ele>133</ele>
        <time>2019-07-14T08:13:58Z</time>
      </trkpt>
      <trkpt lat="48.60604" lon="2.56353">
        <ele>134</ele>
        <time>2019-07-14T08:14:10Z</time>
      </trkpt>
      <trkpt lat="48.60604" lon="2.56353">
        <ele>134</ele>
        <time>2019-07-14T08:14:10Z</time>
      </trkpt>
      <trkpt lat="48.60611" lon="2.56332">
        <ele>141</ele>
        <time>2019-07-14T08:16:25Z</time>
      </trkpt>
      <trkpt lat="48.60608" lon="2.56327">
        <ele>142</ele>
        <time>2019-07-14T08:16:26Z</time>
      </trkpt>
      <trkpt lat="48.60608" lon="2.56324">
        <ele>141</ele>
        <time>2019-07-14T08:16:27Z</time>
      </trkpt>
      <trkpt lat="48.60598" lon="2.56316">
        <ele>140</ele>
        <time>2019-07-14T08:16:31Z</time>
      </trkpt>
      <trkpt lat="48.60601" lon="2.56302">
        <ele>135</ele>
        <time>2019-07-14T08:16:37Z</time>
      </trkpt>
      <trkpt lat="48.60606" lon="2.56291">
        <ele>136</ele>
        <time>2019-07-14T08:16:40Z</time>
      </trkpt>
      <trkpt lat="48.60614" lon="2.5628">
        <ele>136</ele>
        <time>2019-07-14T08:16:45Z</time>
      </trkpt>
      <trkpt lat="48.60621" lon="2.56265">
        <ele>137</ele>
        <time>2019-07-14T08:16:50Z</time>
      </trkpt>
      <trkpt lat="48.60628" lon="2.56255">
        <ele>137</ele>
        <time>2019-07-14T08:16:52Z</time>
      </trkpt>
      <trkpt lat="48.60638" lon="2.56239">
        <ele>138</ele>
        <time>2019-07-14T08:16:54Z</time>
      </trkpt>
      <trkpt lat="48.60646" lon="2.56231">
        <ele>136</ele>
        <time>2019-07-14T08:17:00Z</time>
      </trkpt>
      <trkpt lat="48.60649" lon="2.56215">
        <ele>134</ele>
        <time>2019-07-14T08:17:03Z</time>
      </trkpt>
      <trkpt lat="48.6065" lon="2.56197">
        <ele>137</ele>
        <time>2019-07-14T08:17:06Z</time>
      </trkpt>
      <trkpt lat="48.60647" lon="2.56176">
        <ele>135</ele>
        <time>2019-07-14T08:17:10Z</time>
      </trkpt>
      <trkpt lat="48.6065" lon="2.5616">
        <ele>133</ele>
        <time>2019-07-14T08:17:13Z</time>
      </trkpt>
      <trkpt lat="48.60649" lon="2.56145">
        <ele>134</ele>
        <time>2019-07-14T08:17:17Z</time>
      </trkpt>
      <trkpt lat="48.60648" lon="2.56129">
        <ele>135</ele>
        <time>2019-07-14T08:17:20Z</time>
      </trkpt>
      <trkpt lat="48.60647" lon="2.56115">
        <ele>136</ele>
        <time>2019-07-14T08:17:24Z</time>
      </trkpt>
      <trkpt lat="48.60646" lon="2.56098">
        <ele>137</ele>
        <time>2019-07-14T08:17:27Z</time>
      </trkpt>
      <trkpt lat="48.60649" lon="2.56082">
        <ele>136</ele>
        <time>2019-07-14T08:17:31Z</time>
      </trkpt>
      <trkpt lat="48.6065" lon="2.56066">
        <ele>136</ele>
        <time>2019-07-14T08:17:33Z</time>
      </trkpt>
      <trkpt lat="48.60646" lon="2.56052">
        <ele>139</ele>
        <time>2019-07-14T08:17:36Z</time>
      </trkpt>
      <trkpt lat="48.60644" lon="2.56034">
        <ele>139</ele>
        <time>2019-07-14T08:17:39Z</time>
      </trkpt>
      <trkpt lat="48.60645" lon="2.56019">
        <ele>137</ele>
        <time>2019-07-14T08:17:41Z</time>
      </trkpt>
      <trkpt lat="48.60648" lon="2.56004">
        <ele>137</ele>
        <time>2019-07-14T08:17:45Z</time>
      </trkpt>
      <trkpt lat="48.60644" lon="2.55992">
        <ele>137</ele>
        <time>2019-07-14T08:17:48Z</time>
      </trkpt>
      <trkpt lat="48.6064" lon="2.55977">
        <ele>137</ele>
        <time>2019-07-14T08:17:51Z</time>
      </trkpt>
      <trkpt lat="48.60639" lon="2.55959">
        <ele>137</ele>
        <time>2019-07-14T08:17:54Z</time>
      </trkpt>
      <trkpt lat="48.60636" lon="2.55941">
        <ele>141</ele>
        <time>2019-07-14T08:17:57Z</time>
      </trkpt>
      <trkpt lat="48.60634" lon="2.55927">
        <ele>142</ele>
        <time>2019-07-14T08:17:59Z</time>
      </trkpt>
      <trkpt lat="48.60631" lon="2.55909">
        <ele>144</ele>
        <time>2019-07-14T08:18:02Z</time>
      </trkpt>
      <trkpt lat="48.60629" lon="2.55903">
        <ele>143</ele>
        <time>2019-07-14T08:18:03Z</time>
      </trkpt>
      <trkpt lat="48.60627" lon="2.55889">
        <ele>142</ele>
        <time>2019-07-14T08:18:05Z</time>
      </trkpt>
      <trkpt lat="48.60624" lon="2.55874">
        <ele>143</ele>
        <time>2019-07-14T08:18:08Z</time>
      </trkpt>
      <trkpt lat="48.60621" lon="2.5586">
        <ele>141</ele>
        <time>2019-07-14T08:18:10Z</time>
      </trkpt>
      <trkpt lat="48.60617" lon="2.55846">
        <ele>140</ele>
        <time>2019-07-14T08:18:13Z</time>
      </trkpt>
      <trkpt lat="48.60613" lon="2.55834">
        <ele>143</ele>
        <time>2019-07-14T08:18:16Z</time>
      </trkpt>
      <trkpt lat="48.60609" lon="2.55817">
        <ele>142</ele>
        <time>2019-07-14T08:18:20Z</time>
      </trkpt>
      <trkpt lat="48.60602" lon="2.55805">
        <ele>143</ele>
        <time>2019-07-14T08:18:23Z</time>
      </trkpt>
      <trkpt lat="48.60595" lon="2.55789">
        <ele>143</ele>
        <time>2019-07-14T08:18:27Z</time>
      </trkpt>
      <trkpt lat="48.60589" lon="2.55777">
        <ele>143</ele>
        <time>2019-07-14T08:18:30Z</time>
      </trkpt>
      <trkpt lat="48.60585" lon="2.55762">
        <ele>144</ele>
        <time>2019-07-14T08:18:34Z</time>
      </trkpt>
      <trkpt lat="48.6058" lon="2.55748">
        <ele>145</ele>
        <time>2019-07-14T08:18:38Z</time>
      </trkpt>
      <trkpt lat="48.60577" lon="2.55746">
        <ele>145</ele>
        <time>2019-07-14T08:18:39Z</time>
      </trkpt>
      <trkpt lat="48.60572" lon="2.55733">
        <ele>148</ele>
        <time>2019-07-14T08:18:42Z</time>
      </trkpt>
      <trkpt lat="48.60571" lon="2.55728">
        <ele>149</ele>
        <time>2019-07-14T08:18:43Z</time>
      </trkpt>
      <trkpt lat="48.60569" lon="2.55724">
        <ele>146</ele>
        <time>2019-07-14T08:18:44Z</time>
      </trkpt>
      <trkpt lat="48.60563" lon="2.55712">
        <ele>145</ele>
        <time>2019-07-14T08:18:47Z</time>
      </trkpt>
      <trkpt lat="48.60556" lon="2.557">
        <ele>145</ele>
        <time>2019-07-14T08:18:50Z</time>
      </trkpt>
      <trkpt lat="48.60549" lon="2.55687">
        <ele>144</ele>
        <time>2019-07-14T08:18:53Z</time>
      </trkpt>
      <trkpt lat="48.60545" lon="2.55672">
        <ele>146</ele>
        <time>2019-07-14T08:18:56Z</time>
      </trkpt>
      <trkpt lat="48.60537" lon="2.55656">
        <ele>146</ele>
        <time>2019-07-14T08:18:59Z</time>
      </trkpt>
      <trkpt lat="48.60531" lon="2.55642">
        <ele>146</ele>
        <time>2019-07-14T08:19:01Z</time>
      </trkpt>
      <trkpt lat="48.60526" lon="2.55629">
        <ele>144</ele>
        <time>2019-07-14T08:19:03Z</time>
      </trkpt>
      <trkpt lat="48.6052" lon="2.55617">
        <ele>145</ele>
        <time>2019-07-14T08:19:05Z</time>
      </trkpt>
      <trkpt lat="48.60515" lon="2.55605">
        <ele>144</ele>
        <time>2019-07-14T08:19:07Z</time>
      </trkpt>
      <trkpt lat="48.60506" lon="2.55587">
        <ele>146</ele>
        <time>2019-07-14T08:19:10Z</time>
      </trkpt>
      <trkpt lat="48.60497" lon="2.55573">
        <ele>148</ele>
        <time>2019-07-14T08:19:12Z</time>
      </trkpt>
      <trkpt lat="48.60488" lon="2.55563">
        <ele>147</ele>
        <time>2019-07-14T08:19:14Z</time>
      </trkpt>
      <trkpt lat="48.60478" lon="2.55553">
        <ele>147</ele>
        <time>2019-07-14T08:19:16Z</time>
      </trkpt>
      <trkpt lat="48.60469" lon="2.55542">
        <ele>146</ele>
        <time>2019-07-14T08:19:18Z</time>
      </trkpt>
      <trkpt lat="48.60459" lon="2.55531">
        <ele>147</ele>
        <time>2019-07-14T08:19:20Z</time>
      </trkpt>
      <trkpt lat="48.60449" lon="2.55519">
        <ele>146</ele>
        <time>2019-07-14T08:19:22Z</time>
      </trkpt>
      <trkpt lat="48.60431" lon="2.55509">
        <ele>144</ele>
        <time>2019-07-14T08:19:24Z</time>
      </trkpt>
      <trkpt lat="48.60421" lon="2.55495">
        <ele>143</ele>
        <time>2019-07-14T08:19:26Z</time>
      </trkpt>
      <trkpt lat="48.60413" lon="2.55483">
        <ele>145</ele>
        <time>2019-07-14T08:19:28Z</time>
      </trkpt>
      <trkpt lat="48.60402" lon="2.55473">
        <ele>146</ele>
        <time>2019-07-14T08:19:30Z</time>
      </trkpt>
      <trkpt lat="48.60392" lon="2.55467">
        <ele>143</ele>
        <time>2019-07-14T08:19:32Z</time>
      </trkpt>
      <trkpt lat="48.60387" lon="2.5545">
        <ele>145</ele>
        <time>2019-07-14T08:19:35Z</time>
      </trkpt>
      <trkpt lat="48.60381" lon="2.55439">
        <ele>144</ele>
        <time>2019-07-14T08:19:37Z</time>
      </trkpt>
      <trkpt lat="48.60376" lon="2.55426">
        <ele>143</ele>
        <time>2019-07-14T08:19:39Z</time>
      </trkpt>
      <trkpt lat="48.60371" lon="2.55413">
        <ele>144</ele>
        <time>2019-07-14T08:19:41Z</time>
      </trkpt>
      <trkpt lat="48.60364" lon="2.55398">
        <ele>148</ele>
        <time>2019-07-14T08:19:46Z</time>
      </trkpt>
      <trkpt lat="48.60357" lon="2.55389">
        <ele>148</ele>
        <time>2019-07-14T08:19:49Z</time>
      </trkpt>
      <trkpt lat="48.60349" lon="2.55377">
        <ele>150</ele>
        <time>2019-07-14T08:19:50Z</time>
      </trkpt>
      <trkpt lat="48.60347" lon="2.5538">
        <ele>148</ele>
        <time>2019-07-14T08:19:52Z</time>
      </trkpt>
      <trkpt lat="48.60339" lon="2.55366">
        <ele>144</ele>
        <time>2019-07-14T08:19:57Z</time>
      </trkpt>
      <trkpt lat="48.60333" lon="2.55351">
        <ele>142</ele>
        <time>2019-07-14T08:20:02Z</time>
      </trkpt>
      <trkpt lat="48.60326" lon="2.5534">
        <ele>144</ele>
        <time>2019-07-14T08:20:04Z</time>
      </trkpt>
      <trkpt lat="48.60319" lon="2.55327">
        <ele>144</ele>
        <time>2019-07-14T08:20:09Z</time>
      </trkpt>
      <trkpt lat="48.60316" lon="2.55313">
        <ele>145</ele>
        <time>2019-07-14T08:20:12Z</time>
      </trkpt>
      <trkpt lat="48.6031" lon="2.55302">
        <ele>144</ele>
        <time>2019-07-14T08:20:14Z</time>
      </trkpt>
      <trkpt lat="48.60306" lon="2.55288">
        <ele>145</ele>
        <time>2019-07-14T08:20:16Z</time>
      </trkpt>
      <trkpt lat="48.60296" lon="2.55274">
        <ele>143</ele>
        <time>2019-07-14T08:20:19Z</time>
      </trkpt>
      <trkpt lat="48.60288" lon="2.55264">
        <ele>145</ele>
        <time>2019-07-14T08:20:21Z</time>
      </trkpt>
      <trkpt lat="48.60282" lon="2.55254">
        <ele>145</ele>
        <time>2019-07-14T08:20:23Z</time>
      </trkpt>
      <trkpt lat="48.60276" lon="2.55242">
        <ele>149</ele>
        <time>2019-07-14T08:20:26Z</time>
      </trkpt>
      <trkpt lat="48.60266" lon="2.55232">
        <ele>148</ele>
        <time>2019-07-14T08:20:29Z</time>
      </trkpt>
      <trkpt lat="48.6026" lon="2.55221">
        <ele>149</ele>
        <time>2019-07-14T08:20:33Z</time>
      </trkpt>
      <trkpt lat="48.60255" lon="2.55204">
        <ele>148</ele>
        <time>2019-07-14T08:20:36Z</time>
      </trkpt>
      <trkpt lat="48.60247" lon="2.5519">
        <ele>146</ele>
        <time>2019-07-14T08:20:38Z</time>
      </trkpt>
      <trkpt lat="48.60242" lon="2.55172">
        <ele>149</ele>
        <time>2019-07-14T08:20:40Z</time>
      </trkpt>
      <trkpt lat="48.60237" lon="2.55157">
        <ele>147</ele>
        <time>2019-07-14T08:20:42Z</time>
      </trkpt>
      <trkpt lat="48.60229" lon="2.55145">
        <ele>146</ele>
        <time>2019-07-14T08:20:44Z</time>
      </trkpt>
      <trkpt lat="48.60218" lon="2.55125">
        <ele>146</ele>
        <time>2019-07-14T08:20:46Z</time>
      </trkpt>
      <trkpt lat="48.60209" lon="2.55116">
        <ele>145</ele>
        <time>2019-07-14T08:20:47Z</time>
      </trkpt>
      <trkpt lat="48.60206" lon="2.551">
        <ele>145</ele>
        <time>2019-07-14T08:20:51Z</time>
      </trkpt>
      <trkpt lat="48.60199" lon="2.5508">
        <ele>146</ele>
        <time>2019-07-14T08:20:53Z</time>
      </trkpt>
      <trkpt lat="48.60193" lon="2.55065">
        <ele>148</ele>
        <time>2019-07-14T08:20:55Z</time>
      </trkpt>
      <trkpt lat="48.60181" lon="2.55058">
        <ele>142</ele>
        <time>2019-07-14T08:20:58Z</time>
      </trkpt>
      <trkpt lat="48.60171" lon="2.55056">
        <ele>143</ele>
        <time>2019-07-14T08:21:01Z</time>
      </trkpt>
      <trkpt lat="48.60161" lon="2.55057">
        <ele>140</ele>
        <time>2019-07-14T08:21:03Z</time>
      </trkpt>
      <trkpt lat="48.60152" lon="2.55065">
        <ele>139</ele>
        <time>2019-07-14T08:21:05Z</time>
      </trkpt>
      <trkpt lat="48.60141" lon="2.55069">
        <ele>139</ele>
        <time>2019-07-14T08:21:07Z</time>
      </trkpt>
      <trkpt lat="48.60131" lon="2.55072">
        <ele>140</ele>
        <time>2019-07-14T08:21:09Z</time>
      </trkpt>
      <trkpt lat="48.6012" lon="2.55075">
        <ele>140</ele>
        <time>2019-07-14T08:21:11Z</time>
      </trkpt>
      <trkpt lat="48.60111" lon="2.55078">
        <ele>140</ele>
        <time>2019-07-14T08:21:13Z</time>
      </trkpt>
      <trkpt lat="48.60102" lon="2.55082">
        <ele>141</ele>
        <time>2019-07-14T08:21:16Z</time>
      </trkpt>
      <trkpt lat="48.60093" lon="2.55078">
        <ele>145</ele>
        <time>2019-07-14T08:21:21Z</time>
      </trkpt>
      <trkpt lat="48.60085" lon="2.55059">
        <ele>145</ele>
        <time>2019-07-14T08:21:25Z</time>
      </trkpt>
      <trkpt lat="48.60078" lon="2.55049">
        <ele>144</ele>
        <time>2019-07-14T08:21:28Z</time>
      </trkpt>
      <trkpt lat="48.60066" lon="2.55042">
        <ele>147</ele>
        <time>2019-07-14T08:21:32Z</time>
      </trkpt>
      <trkpt lat="48.60054" lon="2.55042">
        <ele>142</ele>
        <time>2019-07-14T08:21:34Z</time>
      </trkpt>
      <trkpt lat="48.60039" lon="2.55043">
        <ele>136</ele>
        <time>2019-07-14T08:21:37Z</time>
      </trkpt>
      <trkpt lat="48.60029" lon="2.55046">
        <ele>133</ele>
        <time>2019-07-14T08:21:40Z</time>
      </trkpt>
      <trkpt lat="48.60022" lon="2.55035">
        <ele>137</ele>
        <time>2019-07-14T08:21:47Z</time>
      </trkpt>
      <trkpt lat="48.60016" lon="2.55019">
        <ele>137</ele>
        <time>2019-07-14T08:21:50Z</time>
      </trkpt>
      <trkpt lat="48.60012" lon="2.55003">
        <ele>138</ele>
        <time>2019-07-14T08:21:53Z</time>
      </trkpt>
      <trkpt lat="48.60007" lon="2.54991">
        <ele>138</ele>
        <time>2019-07-14T08:21:55Z</time>
      </trkpt>
      <trkpt lat="48.60001" lon="2.54981">
        <ele>138</ele>
        <time>2019-07-14T08:21:57Z</time>
      </trkpt>
      <trkpt lat="48.6" lon="2.54964">
        <ele>141</ele>
        <time>2019-07-14T08:22:00Z</time>
      </trkpt>
      <trkpt lat="48.59995" lon="2.54949">
        <ele>141</ele>
        <time>2019-07-14T08:22:02Z</time>
      </trkpt>
      <trkpt lat="48.59991" lon="2.54934">
        <ele>140</ele>
        <time>2019-07-14T08:22:04Z</time>
      </trkpt>
      <trkpt lat="48.59987" lon="2.54916">
        <ele>140</ele>
        <time>2019-07-14T08:22:06Z</time>
      </trkpt>
      <trkpt lat="48.59987" lon="2.54895">
        <ele>139</ele>
        <time>2019-07-14T08:22:08Z</time>
      </trkpt>
      <trkpt lat="48.59988" lon="2.54881">
        <ele>139</ele>
        <time>2019-07-14T08:22:10Z</time>
      </trkpt>
      <trkpt lat="48.59989" lon="2.54866">
        <ele>136</ele>
        <time>2019-07-14T08:22:12Z</time>
      </trkpt>
      <trkpt lat="48.59985" lon="2.54854">
        <ele>138</ele>
        <time>2019-07-14T08:22:17Z</time>
      </trkpt>
      <trkpt lat="48.59976" lon="2.54863">
        <ele>138</ele>
        <time>2019-07-14T08:22:20Z</time>
      </trkpt>
      <trkpt lat="48.59965" lon="2.5487">
        <ele>138</ele>
        <time>2019-07-14T08:22:24Z</time>
      </trkpt>
      <trkpt lat="48.59955" lon="2.54866">
        <ele>136</ele>
        <time>2019-07-14T08:22:27Z</time>
      </trkpt>
      <trkpt lat="48.59946" lon="2.54856">
        <ele>136</ele>
        <time>2019-07-14T08:22:30Z</time>
      </trkpt>
      <trkpt lat="48.59943" lon="2.54843">
        <ele>136</ele>
        <time>2019-07-14T08:22:33Z</time>
      </trkpt>
      <trkpt lat="48.59938" lon="2.54825">
        <ele>134</ele>
        <time>2019-07-14T08:22:36Z</time>
      </trkpt>
      <trkpt lat="48.59934" lon="2.54813">
        <ele>136</ele>
        <time>2019-07-14T08:22:39Z</time>
      </trkpt>
      <trkpt lat="48.59929" lon="2.54798">
        <ele>136</ele>
        <time>2019-07-14T08:22:43Z</time>
      </trkpt>
      <trkpt lat="48.5992" lon="2.54783">
        <ele>134</ele>
        <time>2019-07-14T08:22:46Z</time>
      </trkpt>
      <trkpt lat="48.59916" lon="2.54768">
        <ele>136</ele>
        <time>2019-07-14T08:22:49Z</time>
      </trkpt>
      <trkpt lat="48.59911" lon="2.54753">
        <ele>136</ele>
        <time>2019-07-14T08:22:52Z</time>
      </trkpt>
      <trkpt lat="48.59906" lon="2.54741">
        <ele>136</ele>
        <time>2019-07-14T08:22:54Z</time>
      </trkpt>
      <trkpt lat="48.59901" lon="2.54728">
        <ele>136</ele>
        <time>2019-07-14T08:22:56Z</time>
      </trkpt>
      <trkpt lat="48.59901" lon="2.54714">
        <ele>139</ele>
        <time>2019-07-14T08:22:59Z</time>
      </trkpt>
      <trkpt lat="48.59897" lon="2.54701">
        <ele>139</ele>
        <time>2019-07-14T08:23:01Z</time>
      </trkpt>
      <trkpt lat="48.59891" lon="2.54684">
        <ele>141</ele>
        <time>2019-07-14T08:23:03Z</time>
      </trkpt>
      <trkpt lat="48.59885" lon="2.54669">
        <ele>141</ele>
        <time>2019-07-14T08:23:05Z</time>
      </trkpt>
      <trkpt lat="48.59879" lon="2.54651">
        <ele>140</ele>
        <time>2019-07-14T08:23:06Z</time>
      </trkpt>
      <trkpt lat="48.59881" lon="2.54638">
        <ele>142</ele>
        <time>2019-07-14T08:23:07Z</time>
      </trkpt>
      <trkpt lat="48.59871" lon="2.54628">
        <ele>138</ele>
        <time>2019-07-14T08:23:12Z</time>
      </trkpt>
      <trkpt lat="48.59869" lon="2.54613">
        <ele>139</ele>
        <time>2019-07-14T08:23:14Z</time>
      </trkpt>
      <trkpt lat="48.59866" lon="2.54599">
        <ele>140</ele>
        <time>2019-07-14T08:23:16Z</time>
      </trkpt>
      <trkpt lat="48.59853" lon="2.54584">
        <ele>139</ele>
        <time>2019-07-14T08:23:18Z</time>
      </trkpt>
      <trkpt lat="48.59846" lon="2.54573">
        <ele>139</ele>
        <time>2019-07-14T08:23:20Z</time>
      </trkpt>
      <trkpt lat="48.59843" lon="2.54556">
        <ele>138</ele>
        <time>2019-07-14T08:23:24Z</time>
      </trkpt>
      <trkpt lat="48.59837" lon="2.54546">
        <ele>141</ele>
        <time>2019-07-14T08:23:26Z</time>
      </trkpt>
      <trkpt lat="48.59834" lon="2.54528">
        <ele>140</ele>
        <time>2019-07-14T08:23:28Z</time>
      </trkpt>
      <trkpt lat="48.59827" lon="2.54516">
        <ele>141</ele>
        <time>2019-07-14T08:23:31Z</time>
      </trkpt>
      <trkpt lat="48.59824" lon="2.54501">
        <ele>140</ele>
        <time>2019-07-14T08:23:33Z</time>
      </trkpt>
      <trkpt lat="48.59819" lon="2.54484">
        <ele>139</ele>
        <time>2019-07-14T08:23:35Z</time>
      </trkpt>
      <trkpt lat="48.59816" lon="2.54465">
        <ele>136</ele>
        <time>2019-07-14T08:23:38Z</time>
      </trkpt>
      <trkpt lat="48.59813" lon="2.54451">
        <ele>135</ele>
        <time>2019-07-14T08:23:40Z</time>
      </trkpt>
      <trkpt lat="48.59805" lon="2.54432">
        <ele>133</ele>
        <time>2019-07-14T08:23:42Z</time>
      </trkpt>
      <trkpt lat="48.59796" lon="2.54423">
        <ele>133</ele>
        <time>2019-07-14T08:23:43Z</time>
      </trkpt>
      <trkpt lat="48.59787" lon="2.54406">
        <ele>133</ele>
        <time>2019-07-14T08:23:45Z</time>
      </trkpt>
      <trkpt lat="48.59777" lon="2.54392">
        <ele>134</ele>
        <time>2019-07-14T08:23:47Z</time>
      </trkpt>
      <trkpt lat="48.59774" lon="2.5437">
        <ele>134</ele>
        <time>2019-07-14T08:23:49Z</time>
      </trkpt>
      <trkpt lat="48.59773" lon="2.54356">
        <ele>136</ele>
        <time>2019-07-14T08:23:51Z</time>
      </trkpt>
      <trkpt lat="48.59765" lon="2.54347">
        <ele>133</ele>
        <time>2019-07-14T08:23:53Z</time>
      </trkpt>
      <trkpt lat="48.59757" lon="2.54336">
        <ele>134</ele>
        <time>2019-07-14T08:23:55Z</time>
      </trkpt>
      <trkpt lat="48.59746" lon="2.54331">
        <ele>134</ele>
        <time>2019-07-14T08:23:57Z</time>
      </trkpt>
      <trkpt lat="48.59734" lon="2.54329">
        <ele>133</ele>
        <time>2019-07-14T08:23:59Z</time>
      </trkpt>
      <trkpt lat="48.59723" lon="2.54329">
        <ele>131</ele>
        <time>2019-07-14T08:24:02Z</time>
      </trkpt>
      <trkpt lat="48.59711" lon="2.54331">
        <ele>133</ele>
        <time>2019-07-14T08:24:04Z</time>
      </trkpt>
      <trkpt lat="48.597" lon="2.54334">
        <ele>133</ele>
        <time>2019-07-14T08:24:06Z</time>
      </trkpt>
      <trkpt lat="48.59687" lon="2.54335">
        <ele>133</ele>
        <time>2019-07-14T08:24:08Z</time>
      </trkpt>
      <trkpt lat="48.59675" lon="2.54339">
        <ele>133</ele>
        <time>2019-07-14T08:24:10Z</time>
      </trkpt>
      <trkpt lat="48.59664" lon="2.54341">
        <ele>133</ele>
        <time>2019-07-14T08:24:12Z</time>
      </trkpt>
      <trkpt lat="48.59649" lon="2.54344">
        <ele>132</ele>
        <time>2019-07-14T08:24:14Z</time>
      </trkpt>
      <trkpt lat="48.59631" lon="2.54343">
        <ele>132</ele>
        <time>2019-07-14T08:24:17Z</time>
      </trkpt>
      <trkpt lat="48.59617" lon="2.54347">
        <ele>133</ele>
        <time>2019-07-14T08:24:20Z</time>
      </trkpt>
      <trkpt lat="48.59605" lon="2.54351">
        <ele>133</ele>
        <time>2019-07-14T08:24:23Z</time>
      </trkpt>
      <trkpt lat="48.59592" lon="2.5435">
        <ele>133</ele>
        <time>2019-07-14T08:24:26Z</time>
      </trkpt>
      <trkpt lat="48.5958" lon="2.54353">
        <ele>132</ele>
        <time>2019-07-14T08:24:29Z</time>
      </trkpt>
      <trkpt lat="48.59569" lon="2.54357">
        <ele>133</ele>
        <time>2019-07-14T08:24:31Z</time>
      </trkpt>
      <trkpt lat="48.59557" lon="2.54358">
        <ele>132</ele>
        <time>2019-07-14T08:24:33Z</time>
      </trkpt>
      <trkpt lat="48.5954" lon="2.54356">
        <ele>131</ele>
        <time>2019-07-14T08:24:36Z</time>
      </trkpt>
      <trkpt lat="48.59529" lon="2.54361">
        <ele>132</ele>
        <time>2019-07-14T08:24:38Z</time>
      </trkpt>
      <trkpt lat="48.59513" lon="2.54362">
        <ele>130</ele>
        <time>2019-07-14T08:24:41Z</time>
      </trkpt>
      <trkpt lat="48.59502" lon="2.54362">
        <ele>132</ele>
        <time>2019-07-14T08:24:43Z</time>
      </trkpt>
      <trkpt lat="48.59488" lon="2.54367">
        <ele>132</ele>
        <time>2019-07-14T08:24:45Z</time>
      </trkpt>
      <trkpt lat="48.59477" lon="2.54369">
        <ele>131</ele>
        <time>2019-07-14T08:24:47Z</time>
      </trkpt>
      <trkpt lat="48.59467" lon="2.5437">
        <ele>131</ele>
        <time>2019-07-14T08:24:49Z</time>
      </trkpt>
      <trkpt lat="48.59455" lon="2.54371">
        <ele>131</ele>
        <time>2019-07-14T08:24:51Z</time>
      </trkpt>
      <trkpt lat="48.59443" lon="2.54371">
        <ele>132</ele>
        <time>2019-07-14T08:24:53Z</time>
      </trkpt>
      <trkpt lat="48.59431" lon="2.5437">
        <ele>131</ele>
        <time>2019-07-14T08:24:55Z</time>
      </trkpt>
      <trkpt lat="48.59421" lon="2.5437">
        <ele>131</ele>
        <time>2019-07-14T08:24:57Z</time>
      </trkpt>
      <trkpt lat="48.59411" lon="2.54374">
        <ele>132</ele>
        <time>2019-07-14T08:25:00Z</time>
      </trkpt>
      <trkpt lat="48.59395" lon="2.54373">
        <ele>132</ele>
        <time>2019-07-14T08:25:02Z</time>
      </trkpt>
      <trkpt lat="48.59385" lon="2.54365">
        <ele>133</ele>
        <time>2019-07-14T08:25:04Z</time>
      </trkpt>
      <trkpt lat="48.59374" lon="2.54375">
        <ele>134</ele>
        <time>2019-07-14T08:25:06Z</time>
      </trkpt>
      <trkpt lat="48.59365" lon="2.54377">
        <ele>133</ele>
        <time>2019-07-14T08:25:07Z</time>
      </trkpt>
      <trkpt lat="48.59349" lon="2.54379">
        <ele>134</ele>
        <time>2019-07-14T08:25:09Z</time>
      </trkpt>
      <trkpt lat="48.59338" lon="2.54378">
        <ele>136</ele>
        <time>2019-07-14T08:25:11Z</time>
      </trkpt>
      <trkpt lat="48.59327" lon="2.5438">
        <ele>136</ele>
        <time>2019-07-14T08:25:13Z</time>
      </trkpt>
      <trkpt lat="48.5931" lon="2.54385">
        <ele>135</ele>
        <time>2019-07-14T08:25:15Z</time>
      </trkpt>
      <trkpt lat="48.59301" lon="2.54384">
        <ele>133</ele>
        <time>2019-07-14T08:25:17Z</time>
      </trkpt>
      <trkpt lat="48.59291" lon="2.54386">
        <ele>134</ele>
        <time>2019-07-14T08:25:19Z</time>
      </trkpt>
      <trkpt lat="48.5928" lon="2.54393">
        <ele>135</ele>
        <time>2019-07-14T08:25:21Z</time>
      </trkpt>
      <trkpt lat="48.59264" lon="2.54393">
        <ele>136</ele>
        <time>2019-07-14T08:25:24Z</time>
      </trkpt>
      <trkpt lat="48.59252" lon="2.54394">
        <ele>134</ele>
        <time>2019-07-14T08:25:26Z</time>
      </trkpt>
      <trkpt lat="48.59238" lon="2.54392">
        <ele>136</ele>
        <time>2019-07-14T08:25:28Z</time>
      </trkpt>
      <trkpt lat="48.59227" lon="2.54395">
        <ele>135</ele>
        <time>2019-07-14T08:25:31Z</time>
      </trkpt>
      <trkpt lat="48.59217" lon="2.54398">
        <ele>133</ele>
        <time>2019-07-14T08:25:33Z</time>
      </trkpt>
      <trkpt lat="48.59207" lon="2.54397">
        <ele>137</ele>
        <time>2019-07-14T08:25:35Z</time>
      </trkpt>
      <trkpt lat="48.59193" lon="2.54398">
        <ele>135</ele>
        <time>2019-07-14T08:25:37Z</time>
      </trkpt>
      <trkpt lat="48.59182" lon="2.54401">
        <ele>134</ele>
        <time>2019-07-14T08:25:39Z</time>
      </trkpt>
      <trkpt lat="48.59164" lon="2.54403">
        <ele>134</ele>
        <time>2019-07-14T08:25:41Z</time>
      </trkpt>
      <trkpt lat="48.59155" lon="2.54408">
        <ele>135</ele>
        <time>2019-07-14T08:25:43Z</time>
      </trkpt>
      <trkpt lat="48.59141" lon="2.54406">
        <ele>132</ele>
        <time>2019-07-14T08:25:44Z</time>
      </trkpt>
      <trkpt lat="48.59132" lon="2.54409">
        <ele>137</ele>
        <time>2019-07-14T08:25:48Z</time>
      </trkpt>
      <trkpt lat="48.59118" lon="2.54409">
        <ele>138</ele>
        <time>2019-07-14T08:25:51Z</time>
      </trkpt>
      <trkpt lat="48.59108" lon="2.54412">
        <ele>138</ele>
        <time>2019-07-14T08:25:54Z</time>
      </trkpt>
      <trkpt lat="48.59095" lon="2.54413">
        <ele>137</ele>
        <time>2019-07-14T08:25:56Z</time>
      </trkpt>
      <trkpt lat="48.59082" lon="2.54416">
        <ele>138</ele>
        <time>2019-07-14T08:26:00Z</time>
      </trkpt>
      <trkpt lat="48.59074" lon="2.54419">
        <ele>135</ele>
        <time>2019-07-14T08:26:01Z</time>
      </trkpt>
      <trkpt lat="48.59062" lon="2.54421">
        <ele>136</ele>
        <time>2019-07-14T08:26:03Z</time>
      </trkpt>
      <trkpt lat="48.59053" lon="2.54424">
        <ele>135</ele>
        <time>2019-07-14T08:26:05Z</time>
      </trkpt>
      <trkpt lat="48.59041" lon="2.54425">
        <ele>134</ele>
        <time>2019-07-14T08:26:07Z</time>
      </trkpt>
      <trkpt lat="48.59027" lon="2.54428">
        <ele>135</ele>
        <time>2019-07-14T08:26:10Z</time>
      </trkpt>
      <trkpt lat="48.59018" lon="2.54427">
        <ele>135</ele>
        <time>2019-07-14T08:26:12Z</time>
      </trkpt>
      <trkpt lat="48.59006" lon="2.5443">
        <ele>133</ele>
        <time>2019-07-14T08:26:16Z</time>
      </trkpt>
      <trkpt lat="48.58997" lon="2.54432">
        <ele>132</ele>
        <time>2019-07-14T08:26:18Z</time>
      </trkpt>
      <trkpt lat="48.58987" lon="2.54435">
        <ele>133</ele>
        <time>2019-07-14T08:26:20Z</time>
      </trkpt>
      <trkpt lat="48.58976" lon="2.54433">
        <ele>132</ele>
        <time>2019-07-14T08:26:22Z</time>
      </trkpt>
      <trkpt lat="48.58964" lon="2.54431">
        <ele>133</ele>
        <time>2019-07-14T08:26:24Z</time>
      </trkpt>
      <trkpt lat="48.5895" lon="2.54429">
        <ele>135</ele>
        <time>2019-07-14T08:26:27Z</time>
      </trkpt>
      <trkpt lat="48.58943" lon="2.54419">
        <ele>137</ele>
        <time>2019-07-14T08:26:34Z</time>
      </trkpt>
      <trkpt lat="48.58942" lon="2.54405">
        <ele>136</ele>
        <time>2019-07-14T08:26:39Z</time>
      </trkpt>
      <trkpt lat="48.58941" lon="2.54388">
        <ele>135</ele>
        <time>2019-07-14T08:26:42Z</time>
      </trkpt>
      <trkpt lat="48.58937" lon="2.54368">
        <ele>136</ele>
        <time>2019-07-14T08:26:44Z</time>
      </trkpt>
      <trkpt lat="48.58939" lon="2.54354">
        <ele>134</ele>
        <time>2019-07-14T08:26:48Z</time>
      </trkpt>
      <trkpt lat="48.58939" lon="2.54334">
        <ele>132</ele>
        <time>2019-07-14T08:26:52Z</time>
      </trkpt>
      <trkpt lat="48.58944" lon="2.54317">
        <ele>132</ele>
        <time>2019-07-14T08:26:55Z</time>
      </trkpt>
      <trkpt lat="48.58944" lon="2.54301">
        <ele>135</ele>
        <time>2019-07-14T08:26:58Z</time>
      </trkpt>
      <trkpt lat="48.58949" lon="2.54285">
        <ele>135</ele>
        <time>2019-07-14T08:27:00Z</time>
      </trkpt>
      <trkpt lat="48.58948" lon="2.54267">
        <ele>132</ele>
        <time>2019-07-14T08:27:02Z</time>
      </trkpt>
      <trkpt lat="48.58954" lon="2.54253">
        <ele>131</ele>
        <time>2019-07-14T08:27:05Z</time>
      </trkpt>
      <trkpt lat="48.58958" lon="2.54229">
        <ele>130</ele>
        <time>2019-07-14T08:27:07Z</time>
      </trkpt>
      <trkpt lat="48.58959" lon="2.54211">
        <ele>127</ele>
        <time>2019-07-14T08:27:10Z</time>
      </trkpt>
      <trkpt lat="48.5896" lon="2.54193">
        <ele>125</ele>
        <time>2019-07-14T08:27:12Z</time>
      </trkpt>
      <trkpt lat="48.58957" lon="2.54177">
        <ele>126</ele>
        <time>2019-07-14T08:27:14Z</time>
      </trkpt>
      <trkpt lat="48.58954" lon="2.54163">
        <ele>126</ele>
        <time>2019-07-14T08:27:16Z</time>
      </trkpt>
      <trkpt lat="48.5895" lon="2.54151">
        <ele>127</ele>
        <time>2019-07-14T08:27:17Z</time>
      </trkpt>
      <trkpt lat="48.58948" lon="2.54123">
        <ele>128</ele>
        <time>2019-07-14T08:27:19Z</time>
      </trkpt>
      <trkpt lat="48.58946" lon="2.54102">
        <ele>127</ele>
        <time>2019-07-14T08:27:21Z</time>
      </trkpt>
      <trkpt lat="48.58947" lon="2.54087">
        <ele>130</ele>
        <time>2019-07-14T08:27:22Z</time>
      </trkpt>
      <trkpt lat="48.58947" lon="2.54068">
        <ele>131</ele>
        <time>2019-07-14T08:27:24Z</time>
      </trkpt>
      <trkpt lat="48.58936" lon="2.54049">
        <ele>127</ele>
        <time>2019-07-14T08:27:27Z</time>
      </trkpt>
      <trkpt lat="48.58933" lon="2.54032">
        <ele>130</ele>
        <time>2019-07-14T08:27:29Z</time>
      </trkpt>
      <trkpt lat="48.58932" lon="2.54016">
        <ele>130</ele>
        <time>2019-07-14T08:27:32Z</time>
      </trkpt>
      <trkpt lat="48.58929" lon="2.54001">
        <ele>129</ele>
        <time>2019-07-14T08:27:34Z</time>
      </trkpt>
      <trkpt lat="48.58919" lon="2.53993">
        <ele>128</ele>
        <time>2019-07-14T08:27:35Z</time>
      </trkpt>
      <trkpt lat="48.58923" lon="2.5398">
        <ele>128</ele>
        <time>2019-07-14T08:27:37Z</time>
      </trkpt>
      <trkpt lat="48.58925" lon="2.53963">
        <ele>127</ele>
        <time>2019-07-14T08:27:39Z</time>
      </trkpt>
      <trkpt lat="48.58925" lon="2.53938">
        <ele>129</ele>
        <time>2019-07-14T08:27:41Z</time>
      </trkpt>
      <trkpt lat="48.58927" lon="2.53921">
        <ele>128</ele>
        <time>2019-07-14T08:27:43Z</time>
      </trkpt>
      <trkpt lat="48.58925" lon="2.53899">
        <ele>127</ele>
        <time>2019-07-14T08:27:45Z</time>
      </trkpt>
      <trkpt lat="48.58925" lon="2.5388">
        <ele>126</ele>
        <time>2019-07-14T08:27:47Z</time>
      </trkpt>
      <trkpt lat="48.58928" lon="2.53867">
        <ele>127</ele>
        <time>2019-07-14T08:27:48Z</time>
      </trkpt>
      <trkpt lat="48.58931" lon="2.53851">
        <ele>127</ele>
        <time>2019-07-14T08:27:50Z</time>
      </trkpt>
      <trkpt lat="48.5893" lon="2.53834">
        <ele>128</ele>
        <time>2019-07-14T08:27:54Z</time>
      </trkpt>
      <trkpt lat="48.58927" lon="2.5382">
        <ele>129</ele>
        <time>2019-07-14T08:27:55Z</time>
      </trkpt>
      <trkpt lat="48.58928" lon="2.53799">
        <ele>130</ele>
        <time>2019-07-14T08:27:57Z</time>
      </trkpt>
      <trkpt lat="48.58935" lon="2.53785">
        <ele>129</ele>
        <time>2019-07-14T08:28:01Z</time>
      </trkpt>
      <trkpt lat="48.58933" lon="2.53762">
        <ele>128</ele>
        <time>2019-07-14T08:28:03Z</time>
      </trkpt>
      <trkpt lat="48.58947" lon="2.53726">
        <ele>129</ele>
        <time>2019-07-14T08:28:06Z</time>
      </trkpt>
      <trkpt lat="48.58934" lon="2.5371">
        <ele>128</ele>
        <time>2019-07-14T08:28:08Z</time>
      </trkpt>
      <trkpt lat="48.58938" lon="2.53693">
        <ele>128</ele>
        <time>2019-07-14T08:28:12Z</time>
      </trkpt>
      <trkpt lat="48.58938" lon="2.53678">
        <ele>129</ele>
        <time>2019-07-14T08:28:14Z</time>
      </trkpt>
      <trkpt lat="48.58932" lon="2.53662">
        <ele>128</ele>
        <time>2019-07-14T08:28:16Z</time>
      </trkpt>
      <trkpt lat="48.58929" lon="2.5364">
        <ele>130</ele>
        <time>2019-07-14T08:28:19Z</time>
      </trkpt>
      <trkpt lat="48.58926" lon="2.53625">
        <ele>130</ele>
        <time>2019-07-14T08:28:22Z</time>
      </trkpt>
      <trkpt lat="48.58931" lon="2.53605">
        <ele>133</ele>
        <time>2019-07-14T08:28:24Z</time>
      </trkpt>
      <trkpt lat="48.58937" lon="2.5359">
        <ele>134</ele>
        <time>2019-07-14T08:28:26Z</time>
      </trkpt>
      <trkpt lat="48.58945" lon="2.53572">
        <ele>133</ele>
        <time>2019-07-14T08:28:28Z</time>
      </trkpt>
      <trkpt lat="48.58928" lon="2.53535">
        <ele>129</ele>
        <time>2019-07-14T08:28:31Z</time>
      </trkpt>
      <trkpt lat="48.58937" lon="2.53521">
        <ele>125</ele>
        <time>2019-07-14T08:28:39Z</time>
      </trkpt>
      <trkpt lat="48.58943" lon="2.53506">
        <ele>126</ele>
        <time>2019-07-14T08:28:43Z</time>
      </trkpt>
      <trkpt lat="48.5895" lon="2.5349">
        <ele>124</ele>
        <time>2019-07-14T08:28:45Z</time>
      </trkpt>
      <trkpt lat="48.58946" lon="2.53478">
        <ele>124</ele>
        <time>2019-07-14T08:28:48Z</time>
      </trkpt>
      <trkpt lat="48.58937" lon="2.53473">
        <ele>127</ele>
        <time>2019-07-14T08:28:50Z</time>
      </trkpt>
      <trkpt lat="48.58947" lon="2.53468">
        <ele>129</ele>
        <time>2019-07-14T08:29:12Z</time>
      </trkpt>
      <trkpt lat="48.58954" lon="2.53456">
        <ele>128</ele>
        <time>2019-07-14T08:29:16Z</time>
      </trkpt>
      <trkpt lat="48.58961" lon="2.53453">
        <ele>132</ele>
        <time>2019-07-14T08:29:23Z</time>
      </trkpt>
      <trkpt lat="48.58961" lon="2.53453">
        <ele>132</ele>
        <time>2019-07-14T08:29:23Z</time>
      </trkpt>
      <trkpt lat="48.58981" lon="2.53432">
        <ele>131</ele>
        <time>2019-07-14T08:29:32Z</time>
      </trkpt>
      <trkpt lat="48.5899" lon="2.53426">
        <ele>132</ele>
        <time>2019-07-14T08:29:35Z</time>
      </trkpt>
      <trkpt lat="48.59001" lon="2.53423">
        <ele>130</ele>
        <time>2019-07-14T08:29:40Z</time>
      </trkpt>
      <trkpt lat="48.5901" lon="2.53416">
        <ele>131</ele>
        <time>2019-07-14T08:29:42Z</time>
      </trkpt>
      <trkpt lat="48.59019" lon="2.53409">
        <ele>130</ele>
        <time>2019-07-14T08:29:46Z</time>
      </trkpt>
      <trkpt lat="48.59031" lon="2.53398">
        <ele>130</ele>
        <time>2019-07-14T08:29:49Z</time>
      </trkpt>
      <trkpt lat="48.59039" lon="2.53386">
        <ele>128</ele>
        <time>2019-07-14T08:29:51Z</time>
      </trkpt>
      <trkpt lat="48.59051" lon="2.53377">
        <ele>128</ele>
        <time>2019-07-14T08:29:54Z</time>
      </trkpt>
      <trkpt lat="48.59061" lon="2.53366">
        <ele>128</ele>
        <time>2019-07-14T08:29:56Z</time>
      </trkpt>
      <trkpt lat="48.59072" lon="2.5336">
        <ele>128</ele>
        <time>2019-07-14T08:29:58Z</time>
      </trkpt>
      <trkpt lat="48.59084" lon="2.53352">
        <ele>129</ele>
        <time>2019-07-14T08:30:01Z</time>
      </trkpt>
      <trkpt lat="48.59092" lon="2.53339">
        <ele>127</ele>
        <time>2019-07-14T08:30:04Z</time>
      </trkpt>
      <trkpt lat="48.59103" lon="2.53332">
        <ele>127</ele>
        <time>2019-07-14T08:30:06Z</time>
      </trkpt>
      <trkpt lat="48.5911" lon="2.53319">
        <ele>129</ele>
        <time>2019-07-14T08:30:08Z</time>
      </trkpt>
      <trkpt lat="48.59121" lon="2.53316">
        <ele>130</ele>
        <time>2019-07-14T08:30:10Z</time>
      </trkpt>
      <trkpt lat="48.59134" lon="2.53304">
        <ele>128</ele>
        <time>2019-07-14T08:30:12Z</time>
      </trkpt>
      <trkpt lat="48.59136" lon="2.53284">
        <ele>125</ele>
        <time>2019-07-14T08:30:15Z</time>
      </trkpt>
      <trkpt lat="48.59148" lon="2.5328">
        <ele>124</ele>
        <time>2019-07-14T08:30:18Z</time>
      </trkpt>
      <trkpt lat="48.59162" lon="2.53278">
        <ele>127</ele>
        <time>2019-07-14T08:30:21Z</time>
      </trkpt>
      <trkpt lat="48.5917" lon="2.53265">
        <ele>126</ele>
        <time>2019-07-14T08:30:23Z</time>
      </trkpt>
      <trkpt lat="48.59177" lon="2.53253">
        <ele>125</ele>
        <time>2019-07-14T08:30:26Z</time>
      </trkpt>
      <trkpt lat="48.5919" lon="2.5325">
        <ele>124</ele>
        <time>2019-07-14T08:30:29Z</time>
      </trkpt>
      <trkpt lat="48.592" lon="2.53245">
        <ele>124</ele>
        <time>2019-07-14T08:30:31Z</time>
      </trkpt>
      <trkpt lat="48.59208" lon="2.53235">
        <ele>123</ele>
        <time>2019-07-14T08:30:33Z</time>
      </trkpt>
      <trkpt lat="48.59217" lon="2.53229">
        <ele>122</ele>
        <time>2019-07-14T08:30:36Z</time>
      </trkpt>
      <trkpt lat="48.59224" lon="2.5322">
        <ele>123</ele>
        <time>2019-07-14T08:30:38Z</time>
      </trkpt>
      <trkpt lat="48.59232" lon="2.53212">
        <ele>123</ele>
        <time>2019-07-14T08:30:41Z</time>
      </trkpt>
      <trkpt lat="48.59245" lon="2.53204">
        <ele>125</ele>
        <time>2019-07-14T08:30:44Z</time>
      </trkpt>
      <trkpt lat="48.59257" lon="2.53194">
        <ele>124</ele>
        <time>2019-07-14T08:30:47Z</time>
      </trkpt>
      <trkpt lat="48.59264" lon="2.53186">
        <ele>122</ele>
        <time>2019-07-14T08:30:50Z</time>
      </trkpt>
      <trkpt lat="48.59273" lon="2.53177">
        <ele>121</ele>
        <time>2019-07-14T08:30:52Z</time>
      </trkpt>
      <trkpt lat="48.5928" lon="2.53166">
        <ele>118</ele>
        <time>2019-07-14T08:30:54Z</time>
      </trkpt>
      <trkpt lat="48.5929" lon="2.5316">
        <ele>117</ele>
        <time>2019-07-14T08:30:57Z</time>
      </trkpt>
      <trkpt lat="48.59299" lon="2.53153">
        <ele>118</ele>
        <time>2019-07-14T08:30:59Z</time>
      </trkpt>
      <trkpt lat="48.59309" lon="2.53145">
        <ele>117</ele>
        <time>2019-07-14T08:31:01Z</time>
      </trkpt>
      <trkpt lat="48.59323" lon="2.53138">
        <ele>114</ele>
        <time>2019-07-14T08:31:04Z</time>
      </trkpt>
      <trkpt lat="48.59339" lon="2.53137">
        <ele>115</ele>
        <time>2019-07-14T08:31:06Z</time>
      </trkpt>
      <trkpt lat="48.59349" lon="2.53116">
        <ele>117</ele>
        <time>2019-07-14T08:31:08Z</time>
      </trkpt>
      <trkpt lat="48.5936" lon="2.53112">
        <ele>117</ele>
        <time>2019-07-14T08:31:10Z</time>
      </trkpt>
      <trkpt lat="48.5937" lon="2.53105">
        <ele>122</ele>
        <time>2019-07-14T08:31:13Z</time>
      </trkpt>
      <trkpt lat="48.59374" lon="2.53091">
        <ele>123</ele>
        <time>2019-07-14T08:31:16Z</time>
      </trkpt>
      <trkpt lat="48.59372" lon="2.53071">
        <ele>124</ele>
        <time>2019-07-14T08:31:18Z</time>
      </trkpt>
      <trkpt lat="48.59369" lon="2.53049">
        <ele>124</ele>
        <time>2019-07-14T08:31:20Z</time>
      </trkpt>
      <trkpt lat="48.59367" lon="2.53035">
        <ele>124</ele>
        <time>2019-07-14T08:31:22Z</time>
      </trkpt>
      <trkpt lat="48.59362" lon="2.53018">
        <ele>125</ele>
        <time>2019-07-14T08:31:25Z</time>
      </trkpt>
      <trkpt lat="48.59364" lon="2.53003">
        <ele>124</ele>
        <time>2019-07-14T08:31:27Z</time>
      </trkpt>
      <trkpt lat="48.59358" lon="2.52991">
        <ele>122</ele>
        <time>2019-07-14T08:31:29Z</time>
      </trkpt>
      <trkpt lat="48.59356" lon="2.52972">
        <ele>124</ele>
        <time>2019-07-14T08:31:32Z</time>
      </trkpt>
      <trkpt lat="48.5935" lon="2.52955">
        <ele>122</ele>
        <time>2019-07-14T08:31:35Z</time>
      </trkpt>
      <trkpt lat="48.59347" lon="2.52937">
        <ele>120</ele>
        <time>2019-07-14T08:31:37Z</time>
      </trkpt>
      <trkpt lat="48.59353" lon="2.52921">
        <ele>124</ele>
        <time>2019-07-14T08:31:40Z</time>
      </trkpt>
      <trkpt lat="48.59349" lon="2.52903">
        <ele>125</ele>
        <time>2019-07-14T08:31:43Z</time>
      </trkpt>
      <trkpt lat="48.59344" lon="2.52889">
        <ele>125</ele>
        <time>2019-07-14T08:31:45Z</time>
      </trkpt>
      <trkpt lat="48.59336" lon="2.52869">
        <ele>126</ele>
        <time>2019-07-14T08:31:48Z</time>
      </trkpt>
      <trkpt lat="48.59332" lon="2.52853">
        <ele>124</ele>
        <time>2019-07-14T08:31:49Z</time>
      </trkpt>
      <trkpt lat="48.59331" lon="2.52832">
        <ele>125</ele>
        <time>2019-07-14T08:31:54Z</time>
      </trkpt>
      <trkpt lat="48.5932" lon="2.52816">
        <ele>128</ele>
        <time>2019-07-14T08:31:56Z</time>
      </trkpt>
      <trkpt lat="48.59319" lon="2.52803">
        <ele>130</ele>
        <time>2019-07-14T08:31:58Z</time>
      </trkpt>
      <trkpt lat="48.59314" lon="2.52787">
        <ele>129</ele>
        <time>2019-07-14T08:32:01Z</time>
      </trkpt>
      <trkpt lat="48.59309" lon="2.52768">
        <ele>132</ele>
        <time>2019-07-14T08:32:04Z</time>
      </trkpt>
      <trkpt lat="48.59301" lon="2.52758">
        <ele>132</ele>
        <time>2019-07-14T08:32:06Z</time>
      </trkpt>
      <trkpt lat="48.59293" lon="2.52746">
        <ele>133</ele>
        <time>2019-07-14T08:32:07Z</time>
      </trkpt>
      <trkpt lat="48.59292" lon="2.52731">
        <ele>135</ele>
        <time>2019-07-14T08:32:10Z</time>
      </trkpt>
      <trkpt lat="48.59289" lon="2.52712">
        <ele>134</ele>
        <time>2019-07-14T08:32:13Z</time>
      </trkpt>
      <trkpt lat="48.59288" lon="2.52696">
        <ele>133</ele>
        <time>2019-07-14T08:32:15Z</time>
      </trkpt>
      <trkpt lat="48.59284" lon="2.52683">
        <ele>133</ele>
        <time>2019-07-14T08:32:16Z</time>
      </trkpt>
      <trkpt lat="48.59277" lon="2.52675">
        <ele>133</ele>
        <time>2019-07-14T08:32:17Z</time>
      </trkpt>
      <trkpt lat="48.59272" lon="2.52662">
        <ele>134</ele>
        <time>2019-07-14T08:32:19Z</time>
      </trkpt>
      <trkpt lat="48.59263" lon="2.52642">
        <ele>136</ele>
        <time>2019-07-14T08:32:21Z</time>
      </trkpt>
      <trkpt lat="48.59255" lon="2.52623">
        <ele>137</ele>
        <time>2019-07-14T08:32:23Z</time>
      </trkpt>
      <trkpt lat="48.59249" lon="2.5261">
        <ele>139</ele>
        <time>2019-07-14T08:32:25Z</time>
      </trkpt>
      <trkpt lat="48.59241" lon="2.5259">
        <ele>141</ele>
        <time>2019-07-14T08:32:27Z</time>
      </trkpt>
      <trkpt lat="48.59233" lon="2.52576">
        <ele>139</ele>
        <time>2019-07-14T08:32:28Z</time>
      </trkpt>
      <trkpt lat="48.5923" lon="2.52561">
        <ele>139</ele>
        <time>2019-07-14T08:32:30Z</time>
      </trkpt>
      <trkpt lat="48.59224" lon="2.52548">
        <ele>140</ele>
        <time>2019-07-14T08:32:32Z</time>
      </trkpt>
      <trkpt lat="48.59216" lon="2.52531">
        <ele>139</ele>
        <time>2019-07-14T08:32:34Z</time>
      </trkpt>
      <trkpt lat="48.59211" lon="2.52513">
        <ele>141</ele>
        <time>2019-07-14T08:32:36Z</time>
      </trkpt>
      <trkpt lat="48.59205" lon="2.52493">
        <ele>142</ele>
        <time>2019-07-14T08:32:38Z</time>
      </trkpt>
      <trkpt lat="48.59195" lon="2.52476">
        <ele>142</ele>
        <time>2019-07-14T08:32:41Z</time>
      </trkpt>
      <trkpt lat="48.59201" lon="2.5246">
        <ele>140</ele>
        <time>2019-07-14T08:32:44Z</time>
      </trkpt>
      <trkpt lat="48.59194" lon="2.52445">
        <ele>140</ele>
        <time>2019-07-14T08:32:46Z</time>
      </trkpt>
      <trkpt lat="48.59181" lon="2.52428">
        <ele>141</ele>
        <time>2019-07-14T08:32:48Z</time>
      </trkpt>
      <trkpt lat="48.59181" lon="2.52408">
        <ele>138</ele>
        <time>2019-07-14T08:32:51Z</time>
      </trkpt>
      <trkpt lat="48.59174" lon="2.5239">
        <ele>138</ele>
        <time>2019-07-14T08:32:53Z</time>
      </trkpt>
      <trkpt lat="48.59167" lon="2.52375">
        <ele>138</ele>
        <time>2019-07-14T08:32:55Z</time>
      </trkpt>
      <trkpt lat="48.59172" lon="2.52364">
        <ele>140</ele>
        <time>2019-07-14T08:32:57Z</time>
      </trkpt>
      <trkpt lat="48.59167" lon="2.5235">
        <ele>140</ele>
        <time>2019-07-14T08:32:59Z</time>
      </trkpt>
      <trkpt lat="48.59163" lon="2.52336">
        <ele>142</ele>
        <time>2019-07-14T08:33:01Z</time>
      </trkpt>
      <trkpt lat="48.59152" lon="2.52318">
        <ele>141</ele>
        <time>2019-07-14T08:33:04Z</time>
      </trkpt>
      <trkpt lat="48.59153" lon="2.52304">
        <ele>143</ele>
        <time>2019-07-14T08:33:06Z</time>
      </trkpt>
      <trkpt lat="48.59149" lon="2.52289">
        <ele>141</ele>
        <time>2019-07-14T08:33:08Z</time>
      </trkpt>
      <trkpt lat="48.59144" lon="2.52276">
        <ele>141</ele>
        <time>2019-07-14T08:33:10Z</time>
      </trkpt>
      <trkpt lat="48.59136" lon="2.52257">
        <ele>140</ele>
        <time>2019-07-14T08:33:13Z</time>
      </trkpt>
      <trkpt lat="48.59129" lon="2.52237">
        <ele>137</ele>
        <time>2019-07-14T08:33:16Z</time>
      </trkpt>
      <trkpt lat="48.59129" lon="2.52223">
        <ele>135</ele>
        <time>2019-07-14T08:33:18Z</time>
      </trkpt>
      <trkpt lat="48.59126" lon="2.52206">
        <ele>136</ele>
        <time>2019-07-14T08:33:21Z</time>
      </trkpt>
      <trkpt lat="48.59124" lon="2.52189">
        <ele>136</ele>
        <time>2019-07-14T08:33:24Z</time>
      </trkpt>
      <trkpt lat="48.59122" lon="2.5217">
        <ele>135</ele>
        <time>2019-07-14T08:33:27Z</time>
      </trkpt>
      <trkpt lat="48.59116" lon="2.52156">
        <ele>133</ele>
        <time>2019-07-14T08:33:29Z</time>
      </trkpt>
      <trkpt lat="48.59112" lon="2.52144">
        <ele>134</ele>
        <time>2019-07-14T08:33:31Z</time>
      </trkpt>
      <trkpt lat="48.59105" lon="2.52132">
        <ele>133</ele>
        <time>2019-07-14T08:33:33Z</time>
      </trkpt>
      <trkpt lat="48.59101" lon="2.52114">
        <ele>133</ele>
        <time>2019-07-14T08:33:35Z</time>
      </trkpt>
      <trkpt lat="48.59097" lon="2.52099">
        <ele>135</ele>
        <time>2019-07-14T08:33:37Z</time>
      </trkpt>
      <trkpt lat="48.59091" lon="2.52088">
        <ele>134</ele>
        <time>2019-07-14T08:33:39Z</time>
      </trkpt>
      <trkpt lat="48.59086" lon="2.52072">
        <ele>136</ele>
        <time>2019-07-14T08:33:41Z</time>
      </trkpt>
      <trkpt lat="48.59076" lon="2.52057">
        <ele>137</ele>
        <time>2019-07-14T08:33:43Z</time>
      </trkpt>
      <trkpt lat="48.59074" lon="2.52042">
        <ele>136</ele>
        <time>2019-07-14T08:33:45Z</time>
      </trkpt>
      <trkpt lat="48.5907" lon="2.52026">
        <ele>135</ele>
        <time>2019-07-14T08:33:47Z</time>
      </trkpt>
      <trkpt lat="48.59066" lon="2.5201">
        <ele>132</ele>
        <time>2019-07-14T08:33:49Z</time>
      </trkpt>
      <trkpt lat="48.5906" lon="2.51993">
        <ele>133</ele>
        <time>2019-07-14T08:33:52Z</time>
      </trkpt>
      <trkpt lat="48.59062" lon="2.51975">
        <ele>132</ele>
        <time>2019-07-14T08:33:54Z</time>
      </trkpt>
      <trkpt lat="48.59056" lon="2.51957">
        <ele>135</ele>
        <time>2019-07-14T08:33:56Z</time>
      </trkpt>
      <trkpt lat="48.5905" lon="2.51947">
        <ele>137</ele>
        <time>2019-07-14T08:33:57Z</time>
      </trkpt>
      <trkpt lat="48.59042" lon="2.51927">
        <ele>135</ele>
        <time>2019-07-14T08:33:59Z</time>
      </trkpt>
      <trkpt lat="48.59041" lon="2.51906">
        <ele>135</ele>
        <time>2019-07-14T08:34:02Z</time>
      </trkpt>
      <trkpt lat="48.59035" lon="2.5189">
        <ele>135</ele>
        <time>2019-07-14T08:34:04Z</time>
      </trkpt>
      <trkpt lat="48.59036" lon="2.51876">
        <ele>134</ele>
        <time>2019-07-14T08:34:06Z</time>
      </trkpt>
      <trkpt lat="48.59031" lon="2.51865">
        <ele>137</ele>
        <time>2019-07-14T08:34:08Z</time>
      </trkpt>
      <trkpt lat="48.59026" lon="2.51847">
        <ele>135</ele>
        <time>2019-07-14T08:34:10Z</time>
      </trkpt>
      <trkpt lat="48.5902" lon="2.51834">
        <ele>135</ele>
        <time>2019-07-14T08:34:12Z</time>
      </trkpt>
      <trkpt lat="48.59008" lon="2.51816">
        <ele>132</ele>
        <time>2019-07-14T08:34:14Z</time>
      </trkpt>
      <trkpt lat="48.58998" lon="2.51808">
        <ele>131</ele>
        <time>2019-07-14T08:34:15Z</time>
      </trkpt>
      <trkpt lat="48.58998" lon="2.51791">
        <ele>132</ele>
        <time>2019-07-14T08:34:18Z</time>
      </trkpt>
      <trkpt lat="48.58994" lon="2.51779">
        <ele>132</ele>
        <time>2019-07-14T08:34:20Z</time>
      </trkpt>
      <trkpt lat="48.58992" lon="2.51762">
        <ele>131</ele>
        <time>2019-07-14T08:34:22Z</time>
      </trkpt>
      <trkpt lat="48.58992" lon="2.51744">
        <ele>130</ele>
        <time>2019-07-14T08:34:24Z</time>
      </trkpt>
      <trkpt lat="48.58989" lon="2.51725">
        <ele>130</ele>
        <time>2019-07-14T08:34:26Z</time>
      </trkpt>
      <trkpt lat="48.58992" lon="2.51711">
        <ele>133</ele>
        <time>2019-07-14T08:34:28Z</time>
      </trkpt>
      <trkpt lat="48.58984" lon="2.51699">
        <ele>133</ele>
        <time>2019-07-14T08:34:30Z</time>
      </trkpt>
      <trkpt lat="48.58978" lon="2.51686">
        <ele>134</ele>
        <time>2019-07-14T08:34:32Z</time>
      </trkpt>
      <trkpt lat="48.58966" lon="2.51665">
        <ele>135</ele>
        <time>2019-07-14T08:34:34Z</time>
      </trkpt>
      <trkpt lat="48.58957" lon="2.51652">
        <ele>135</ele>
        <time>2019-07-14T08:34:36Z</time>
      </trkpt>
      <trkpt lat="48.58955" lon="2.51638">
        <ele>137</ele>
        <time>2019-07-14T08:34:38Z</time>
      </trkpt>
      <trkpt lat="48.58949" lon="2.51619">
        <ele>138</ele>
        <time>2019-07-14T08:34:41Z</time>
      </trkpt>
      <trkpt lat="48.58947" lon="2.51601">
        <ele>134</ele>
        <time>2019-07-14T08:34:44Z</time>
      </trkpt>
      <trkpt lat="48.5894" lon="2.51587">
        <ele>134</ele>
        <time>2019-07-14T08:34:46Z</time>
      </trkpt>
      <trkpt lat="48.58935" lon="2.51571">
        <ele>138</ele>
        <time>2019-07-14T08:34:48Z</time>
      </trkpt>
      <trkpt lat="48.5893" lon="2.51555">
        <ele>138</ele>
        <time>2019-07-14T08:34:50Z</time>
      </trkpt>
      <trkpt lat="48.58927" lon="2.51539">
        <ele>140</ele>
        <time>2019-07-14T08:34:52Z</time>
      </trkpt>
      <trkpt lat="48.58923" lon="2.51522">
        <ele>145</ele>
        <time>2019-07-14T08:34:55Z</time>
      </trkpt>
      <trkpt lat="48.58915" lon="2.51506">
        <ele>147</ele>
        <time>2019-07-14T08:34:58Z</time>
      </trkpt>
      <trkpt lat="48.58905" lon="2.51501">
        <ele>145</ele>
        <time>2019-07-14T08:35:01Z</time>
      </trkpt>
      <trkpt lat="48.58894" lon="2.51498">
        <ele>143</ele>
        <time>2019-07-14T08:35:05Z</time>
      </trkpt>
      <trkpt lat="48.58886" lon="2.51488">
        <ele>142</ele>
        <time>2019-07-14T08:35:08Z</time>
      </trkpt>
      <trkpt lat="48.58873" lon="2.51487">
        <ele>139</ele>
        <time>2019-07-14T08:35:13Z</time>
      </trkpt>
      <trkpt lat="48.58865" lon="2.51481">
        <ele>139</ele>
        <time>2019-07-14T08:35:18Z</time>
      </trkpt>
      <trkpt lat="48.58854" lon="2.51482">
        <ele>138</ele>
        <time>2019-07-14T08:35:23Z</time>
      </trkpt>
      <trkpt lat="48.58843" lon="2.51486">
        <ele>140</ele>
        <time>2019-07-14T08:35:27Z</time>
      </trkpt>
      <trkpt lat="48.58831" lon="2.51491">
        <ele>137</ele>
        <time>2019-07-14T08:35:31Z</time>
      </trkpt>
      <trkpt lat="48.58822" lon="2.51501">
        <ele>138</ele>
        <time>2019-07-14T08:35:35Z</time>
      </trkpt>
      <trkpt lat="48.58811" lon="2.51504">
        <ele>139</ele>
        <time>2019-07-14T08:35:37Z</time>
      </trkpt>
      <trkpt lat="48.58798" lon="2.5151">
        <ele>137</ele>
        <time>2019-07-14T08:35:41Z</time>
      </trkpt>
      <trkpt lat="48.58786" lon="2.51516">
        <ele>136</ele>
        <time>2019-07-14T08:35:44Z</time>
      </trkpt>
      <trkpt lat="48.58775" lon="2.51522">
        <ele>136</ele>
        <time>2019-07-14T08:35:46Z</time>
      </trkpt>
      <trkpt lat="48.58762" lon="2.5153">
        <ele>137</ele>
        <time>2019-07-14T08:35:49Z</time>
      </trkpt>
      <trkpt lat="48.58752" lon="2.51541">
        <ele>139</ele>
        <time>2019-07-14T08:35:52Z</time>
      </trkpt>
      <trkpt lat="48.5874" lon="2.51545">
        <ele>140</ele>
        <time>2019-07-14T08:35:54Z</time>
      </trkpt>
      <trkpt lat="48.58728" lon="2.51551">
        <ele>141</ele>
        <time>2019-07-14T08:35:56Z</time>
      </trkpt>
      <trkpt lat="48.58718" lon="2.51551">
        <ele>143</ele>
        <time>2019-07-14T08:35:58Z</time>
      </trkpt>
      <trkpt lat="48.58704" lon="2.5155">
        <ele>144</ele>
        <time>2019-07-14T08:36:01Z</time>
      </trkpt>
      <trkpt lat="48.58695" lon="2.51551">
        <ele>146</ele>
        <time>2019-07-14T08:36:03Z</time>
      </trkpt>
      <trkpt lat="48.58683" lon="2.51561">
        <ele>145</ele>
        <time>2019-07-14T08:36:06Z</time>
      </trkpt>
      <trkpt lat="48.58675" lon="2.51568">
        <ele>147</ele>
        <time>2019-07-14T08:36:08Z</time>
      </trkpt>
      <trkpt lat="48.58667" lon="2.51578">
        <ele>146</ele>
        <time>2019-07-14T08:36:11Z</time>
      </trkpt>
      <trkpt lat="48.58657" lon="2.51587">
        <ele>147</ele>
        <time>2019-07-14T08:36:14Z</time>
      </trkpt>
      <trkpt lat="48.58645" lon="2.51596">
        <ele>144</ele>
        <time>2019-07-14T08:36:17Z</time>
      </trkpt>
      <trkpt lat="48.5863" lon="2.51593">
        <ele>144</ele>
        <time>2019-07-14T08:36:20Z</time>
      </trkpt>
      <trkpt lat="48.58618" lon="2.51592">
        <ele>144</ele>
        <time>2019-07-14T08:36:22Z</time>
      </trkpt>
      <trkpt lat="48.58605" lon="2.51588">
        <ele>143</ele>
        <time>2019-07-14T08:36:25Z</time>
      </trkpt>
      <trkpt lat="48.58591" lon="2.51586">
        <ele>142</ele>
        <time>2019-07-14T08:36:27Z</time>
      </trkpt>
      <trkpt lat="48.58581" lon="2.51592">
        <ele>140</ele>
        <time>2019-07-14T08:36:29Z</time>
      </trkpt>
      <trkpt lat="48.58571" lon="2.51592">
        <ele>139</ele>
        <time>2019-07-14T08:36:31Z</time>
      </trkpt>
      <trkpt lat="48.58561" lon="2.51594">
        <ele>138</ele>
        <time>2019-07-14T08:36:33Z</time>
      </trkpt>
      <trkpt lat="48.58551" lon="2.516">
        <ele>141</ele>
        <time>2019-07-14T08:36:36Z</time>
      </trkpt>
      <trkpt lat="48.58538" lon="2.51605">
        <ele>139</ele>
        <time>2019-07-14T08:36:38Z</time>
      </trkpt>
      <trkpt lat="48.58528" lon="2.5161">
        <ele>139</ele>
        <time>2019-07-14T08:36:40Z</time>
      </trkpt>
      <trkpt lat="48.58518" lon="2.51616">
        <ele>137</ele>
        <time>2019-07-14T08:36:42Z</time>
      </trkpt>
      <trkpt lat="48.58505" lon="2.51624">
        <ele>136</ele>
        <time>2019-07-14T08:36:45Z</time>
      </trkpt>
      <trkpt lat="48.58497" lon="2.51631">
        <ele>136</ele>
        <time>2019-07-14T08:36:47Z</time>
      </trkpt>
      <trkpt lat="48.5849" lon="2.51642">
        <ele>136</ele>
        <time>2019-07-14T08:36:49Z</time>
      </trkpt>
      <trkpt lat="48.58481" lon="2.51655">
        <ele>137</ele>
        <time>2019-07-14T08:36:52Z</time>
      </trkpt>
      <trkpt lat="48.5847" lon="2.51661">
        <ele>138</ele>
        <time>2019-07-14T08:36:54Z</time>
      </trkpt>
      <trkpt lat="48.58466" lon="2.51676">
        <ele>135</ele>
        <time>2019-07-14T08:36:56Z</time>
      </trkpt>
      <trkpt lat="48.58463" lon="2.51691">
        <ele>136</ele>
        <time>2019-07-14T08:36:58Z</time>
      </trkpt>
      <trkpt lat="48.58459" lon="2.51704">
        <ele>136</ele>
        <time>2019-07-14T08:37:01Z</time>
      </trkpt>
      <trkpt lat="48.5845" lon="2.51718">
        <ele>134</ele>
        <time>2019-07-14T08:37:04Z</time>
      </trkpt>
      <trkpt lat="48.58442" lon="2.51727">
        <ele>136</ele>
        <time>2019-07-14T08:37:08Z</time>
      </trkpt>
      <trkpt lat="48.58434" lon="2.5174">
        <ele>136</ele>
        <time>2019-07-14T08:37:12Z</time>
      </trkpt>
      <trkpt lat="48.58425" lon="2.51749">
        <ele>136</ele>
        <time>2019-07-14T08:37:14Z</time>
      </trkpt>
      <trkpt lat="48.58418" lon="2.51763">
        <ele>136</ele>
        <time>2019-07-14T08:37:17Z</time>
      </trkpt>
      <trkpt lat="48.58408" lon="2.51773">
        <ele>133</ele>
        <time>2019-07-14T08:37:19Z</time>
      </trkpt>
      <trkpt lat="48.58399" lon="2.51778">
        <ele>132</ele>
        <time>2019-07-14T08:37:21Z</time>
      </trkpt>
      <trkpt lat="48.5839" lon="2.51786">
        <ele>127</ele>
        <time>2019-07-14T08:37:23Z</time>
      </trkpt>
      <trkpt lat="48.58381" lon="2.51797">
        <ele>127</ele>
        <time>2019-07-14T08:37:25Z</time>
      </trkpt>
      <trkpt lat="48.58371" lon="2.51802">
        <ele>129</ele>
        <time>2019-07-14T08:37:27Z</time>
      </trkpt>
      <trkpt lat="48.5836" lon="2.5181">
        <ele>133</ele>
        <time>2019-07-14T08:37:30Z</time>
      </trkpt>
      <trkpt lat="48.5835" lon="2.51816">
        <ele>133</ele>
        <time>2019-07-14T08:37:32Z</time>
      </trkpt>
      <trkpt lat="48.58337" lon="2.51821">
        <ele>135</ele>
        <time>2019-07-14T08:37:35Z</time>
      </trkpt>
      <trkpt lat="48.58326" lon="2.51836">
        <ele>135</ele>
        <time>2019-07-14T08:37:38Z</time>
      </trkpt>
      <trkpt lat="48.58314" lon="2.51844">
        <ele>134</ele>
        <time>2019-07-14T08:37:40Z</time>
      </trkpt>
      <trkpt lat="48.58307" lon="2.51857">
        <ele>135</ele>
        <time>2019-07-14T08:37:43Z</time>
      </trkpt>
      <trkpt lat="48.58294" lon="2.51866">
        <ele>136</ele>
        <time>2019-07-14T08:37:46Z</time>
      </trkpt>
      <trkpt lat="48.58286" lon="2.51874">
        <ele>135</ele>
        <time>2019-07-14T08:37:48Z</time>
      </trkpt>
      <trkpt lat="48.58278" lon="2.51879">
        <ele>134</ele>
        <time>2019-07-14T08:37:51Z</time>
      </trkpt>
      <trkpt lat="48.58266" lon="2.51889">
        <ele>134</ele>
        <time>2019-07-14T08:37:54Z</time>
      </trkpt>
      <trkpt lat="48.58254" lon="2.51895">
        <ele>134</ele>
        <time>2019-07-14T08:37:57Z</time>
      </trkpt>
      <trkpt lat="48.58244" lon="2.519">
        <ele>137</ele>
        <time>2019-07-14T08:38:00Z</time>
      </trkpt>
      <trkpt lat="48.58238" lon="2.5191">
        <ele>136</ele>
        <time>2019-07-14T08:38:02Z</time>
      </trkpt>
      <trkpt lat="48.58226" lon="2.51916">
        <ele>135</ele>
        <time>2019-07-14T08:38:04Z</time>
      </trkpt>
      <trkpt lat="48.58217" lon="2.51916">
        <ele>135</ele>
        <time>2019-07-14T08:38:06Z</time>
      </trkpt>
      <trkpt lat="48.58201" lon="2.51921">
        <ele>134</ele>
        <time>2019-07-14T08:38:09Z</time>
      </trkpt>
      <trkpt lat="48.58189" lon="2.51924">
        <ele>135</ele>
        <time>2019-07-14T08:38:11Z</time>
      </trkpt>
      <trkpt lat="48.58175" lon="2.51927">
        <ele>134</ele>
        <time>2019-07-14T08:38:13Z</time>
      </trkpt>
      <trkpt lat="48.58161" lon="2.51928">
        <ele>135</ele>
        <time>2019-07-14T08:38:16Z</time>
      </trkpt>
      <trkpt lat="48.58151" lon="2.51928">
        <ele>136</ele>
        <time>2019-07-14T08:38:17Z</time>
      </trkpt>
      <trkpt lat="48.58139" lon="2.51933">
        <ele>133</ele>
        <time>2019-07-14T08:38:19Z</time>
      </trkpt>
      <trkpt lat="48.58129" lon="2.51938">
        <ele>131</ele>
        <time>2019-07-14T08:38:21Z</time>
      </trkpt>
      <trkpt lat="48.58119" lon="2.51944">
        <ele>132</ele>
        <time>2019-07-14T08:38:23Z</time>
      </trkpt>
      <trkpt lat="48.58107" lon="2.51941">
        <ele>131</ele>
        <time>2019-07-14T08:38:25Z</time>
      </trkpt>
      <trkpt lat="48.58096" lon="2.51936">
        <ele>132</ele>
        <time>2019-07-14T08:38:28Z</time>
      </trkpt>
      <trkpt lat="48.58076" lon="2.51941">
        <ele>132</ele>
        <time>2019-07-14T08:38:32Z</time>
      </trkpt>
      <trkpt lat="48.58063" lon="2.5194">
        <ele>133</ele>
        <time>2019-07-14T08:38:33Z</time>
      </trkpt>
      <trkpt lat="48.58049" lon="2.51938">
        <ele>136</ele>
        <time>2019-07-14T08:38:35Z</time>
      </trkpt>
      <trkpt lat="48.58039" lon="2.51939">
        <ele>138</ele>
        <time>2019-07-14T08:38:37Z</time>
      </trkpt>
      <trkpt lat="48.5803" lon="2.51936">
        <ele>137</ele>
        <time>2019-07-14T08:38:39Z</time>
      </trkpt>
      <trkpt lat="48.58014" lon="2.51933">
        <ele>135</ele>
        <time>2019-07-14T08:38:41Z</time>
      </trkpt>
      <trkpt lat="48.58003" lon="2.51935">
        <ele>135</ele>
        <time>2019-07-14T08:38:43Z</time>
      </trkpt>
      <trkpt lat="48.57993" lon="2.51935">
        <ele>135</ele>
        <time>2019-07-14T08:38:44Z</time>
      </trkpt>
      <trkpt lat="48.57981" lon="2.51944">
        <ele>135</ele>
        <time>2019-07-14T08:38:46Z</time>
      </trkpt>
      <trkpt lat="48.57971" lon="2.51948">
        <ele>133</ele>
        <time>2019-07-14T08:38:47Z</time>
      </trkpt>
      <trkpt lat="48.57959" lon="2.51952">
        <ele>134</ele>
        <time>2019-07-14T08:38:50Z</time>
      </trkpt>
      <trkpt lat="48.57948" lon="2.51956">
        <ele>133</ele>
        <time>2019-07-14T08:38:52Z</time>
      </trkpt>
      <trkpt lat="48.57938" lon="2.51956">
        <ele>133</ele>
        <time>2019-07-14T08:38:54Z</time>
      </trkpt>
      <trkpt lat="48.57924" lon="2.51958">
        <ele>134</ele>
        <time>2019-07-14T08:38:56Z</time>
      </trkpt>
      <trkpt lat="48.57911" lon="2.51972">
        <ele>134</ele>
        <time>2019-07-14T08:38:58Z</time>
      </trkpt>
      <trkpt lat="48.57911" lon="2.51972">
        <ele>128</ele>
        <time>2019-07-14T08:39:06Z</time>
      </trkpt>
      <trkpt lat="48.57911" lon="2.51972">
        <ele>128</ele>
        <time>2019-07-14T08:39:06Z</time>
      </trkpt>
      <trkpt lat="48.57897" lon="2.51983">
        <ele>124</ele>
        <time>2019-07-14T08:39:45Z</time>
      </trkpt>
      <trkpt lat="48.57893" lon="2.51996">
        <ele>122</ele>
        <time>2019-07-14T08:39:48Z</time>
      </trkpt>
      <trkpt lat="48.57883" lon="2.52004">
        <ele>122</ele>
        <time>2019-07-14T08:39:52Z</time>
      </trkpt>
      <trkpt lat="48.57875" lon="2.52015">
        <ele>121</ele>
        <time>2019-07-14T08:39:57Z</time>
      </trkpt>
      <trkpt lat="48.57874" lon="2.52032">
        <ele>122</ele>
        <time>2019-07-14T08:40:01Z</time>
      </trkpt>
      <trkpt lat="48.57873" lon="2.52047">
        <ele>122</ele>
        <time>2019-07-14T08:40:03Z</time>
      </trkpt>
      <trkpt lat="48.57867" lon="2.52063">
        <ele>125</ele>
        <time>2019-07-14T08:40:07Z</time>
      </trkpt>
      <trkpt lat="48.57861" lon="2.52074">
        <ele>125</ele>
        <time>2019-07-14T08:40:10Z</time>
      </trkpt>
      <trkpt lat="48.57855" lon="2.52092">
        <ele>123</ele>
        <time>2019-07-14T08:40:13Z</time>
      </trkpt>
      <trkpt lat="48.57854" lon="2.52106">
        <ele>122</ele>
        <time>2019-07-14T08:40:16Z</time>
      </trkpt>
      <trkpt lat="48.57856" lon="2.52123">
        <ele>123</ele>
        <time>2019-07-14T08:40:18Z</time>
      </trkpt>
      <trkpt lat="48.57853" lon="2.5214">
        <ele>123</ele>
        <time>2019-07-14T08:40:21Z</time>
      </trkpt>
      <trkpt lat="48.5785" lon="2.52158">
        <ele>124</ele>
        <time>2019-07-14T08:40:23Z</time>
      </trkpt>
      <trkpt lat="48.57851" lon="2.52178">
        <ele>126</ele>
        <time>2019-07-14T08:40:26Z</time>
      </trkpt>
      <trkpt lat="48.57847" lon="2.52192">
        <ele>126</ele>
        <time>2019-07-14T08:40:30Z</time>
      </trkpt>
      <trkpt lat="48.5784" lon="2.522">
        <ele>126</ele>
        <time>2019-07-14T08:40:33Z</time>
      </trkpt>
      <trkpt lat="48.57836" lon="2.52214">
        <ele>127</ele>
        <time>2019-07-14T08:40:36Z</time>
      </trkpt>
      <trkpt lat="48.57836" lon="2.52232">
        <ele>130</ele>
        <time>2019-07-14T08:40:40Z</time>
      </trkpt>
      <trkpt lat="48.57832" lon="2.52245">
        <ele>131</ele>
        <time>2019-07-14T08:40:43Z</time>
      </trkpt>
      <trkpt lat="48.57827" lon="2.52262">
        <ele>129</ele>
        <time>2019-07-14T08:40:47Z</time>
      </trkpt>
      <trkpt lat="48.57824" lon="2.52277">
        <ele>129</ele>
        <time>2019-07-14T08:40:50Z</time>
      </trkpt>
      <trkpt lat="48.5782" lon="2.52295">
        <ele>127</ele>
        <time>2019-07-14T08:40:54Z</time>
      </trkpt>
      <trkpt lat="48.57821" lon="2.52308">
        <ele>127</ele>
        <time>2019-07-14T08:40:56Z</time>
      </trkpt>
      <trkpt lat="48.57818" lon="2.52322">
        <ele>127</ele>
        <time>2019-07-14T08:40:59Z</time>
      </trkpt>
      <trkpt lat="48.57818" lon="2.52338">
        <ele>130</ele>
        <time>2019-07-14T08:41:02Z</time>
      </trkpt>
      <trkpt lat="48.57816" lon="2.52352">
        <ele>135</ele>
        <time>2019-07-14T08:41:06Z</time>
      </trkpt>
      <trkpt lat="48.57814" lon="2.5237">
        <ele>132</ele>
        <time>2019-07-14T08:41:10Z</time>
      </trkpt>
      <trkpt lat="48.5781" lon="2.52388">
        <ele>130</ele>
        <time>2019-07-14T08:41:14Z</time>
      </trkpt>
      <trkpt lat="48.57809" lon="2.52403">
        <ele>129</ele>
        <time>2019-07-14T08:41:17Z</time>
      </trkpt>
      <trkpt lat="48.57807" lon="2.52418">
        <ele>127</ele>
        <time>2019-07-14T08:41:20Z</time>
      </trkpt>
      <trkpt lat="48.57803" lon="2.52434">
        <ele>128</ele>
        <time>2019-07-14T08:41:24Z</time>
      </trkpt>
      <trkpt lat="48.578" lon="2.5245">
        <ele>132</ele>
        <time>2019-07-14T08:41:28Z</time>
      </trkpt>
      <trkpt lat="48.57799" lon="2.52464">
        <ele>132</ele>
        <time>2019-07-14T08:41:32Z</time>
      </trkpt>
      <trkpt lat="48.57796" lon="2.52479">
        <ele>131</ele>
        <time>2019-07-14T08:41:36Z</time>
      </trkpt>
      <trkpt lat="48.57793" lon="2.52493">
        <ele>132</ele>
        <time>2019-07-14T08:41:39Z</time>
      </trkpt>
      <trkpt lat="48.57793" lon="2.52507">
        <ele>130</ele>
        <time>2019-07-14T08:41:43Z</time>
      </trkpt>
      <trkpt lat="48.57788" lon="2.5252">
        <ele>128</ele>
        <time>2019-07-14T08:41:46Z</time>
      </trkpt>
      <trkpt lat="48.57786" lon="2.52533">
        <ele>128</ele>
        <time>2019-07-14T08:41:49Z</time>
      </trkpt>
      <trkpt lat="48.57782" lon="2.52547">
        <ele>130</ele>
        <time>2019-07-14T08:41:52Z</time>
      </trkpt>
      <trkpt lat="48.57783" lon="2.52561">
        <ele>129</ele>
        <time>2019-07-14T08:41:56Z</time>
      </trkpt>
      <trkpt lat="48.57782" lon="2.52575">
        <ele>130</ele>
        <time>2019-07-14T08:42:00Z</time>
      </trkpt>
      <trkpt lat="48.57779" lon="2.5258">
        <ele>133</ele>
        <time>2019-07-14T08:42:03Z</time>
      </trkpt>
      <trkpt lat="48.57779" lon="2.5258">
        <ele>133</ele>
        <time>2019-07-14T08:42:03Z</time>
      </trkpt>
      <trkpt lat="48.57796" lon="2.52689">
        <ele>134</ele>
        <time>2019-07-14T08:43:24Z</time>
      </trkpt>
      <trkpt lat="48.578" lon="2.52702">
        <ele>134</ele>
        <time>2019-07-14T08:43:26Z</time>
      </trkpt>
      <trkpt lat="48.57803" lon="2.52723">
        <ele>134</ele>
        <time>2019-07-14T08:43:28Z</time>
      </trkpt>
      <trkpt lat="48.57807" lon="2.52738">
        <ele>138</ele>
        <time>2019-07-14T08:43:31Z</time>
      </trkpt>
      <trkpt lat="48.57814" lon="2.52757">
        <ele>140</ele>
        <time>2019-07-14T08:43:35Z</time>
      </trkpt>
      <trkpt lat="48.57819" lon="2.52771">
        <ele>138</ele>
        <time>2019-07-14T08:43:37Z</time>
      </trkpt>
      <trkpt lat="48.57829" lon="2.52786">
        <ele>140</ele>
        <time>2019-07-14T08:43:39Z</time>
      </trkpt>
      <trkpt lat="48.57835" lon="2.52798">
        <ele>141</ele>
        <time>2019-07-14T08:43:41Z</time>
      </trkpt>
      <trkpt lat="48.57845" lon="2.52812">
        <ele>140</ele>
        <time>2019-07-14T08:43:44Z</time>
      </trkpt>
      <trkpt lat="48.57852" lon="2.52822">
        <ele>138</ele>
        <time>2019-07-14T08:43:46Z</time>
      </trkpt>
      <trkpt lat="48.57861" lon="2.52833">
        <ele>138</ele>
        <time>2019-07-14T08:43:48Z</time>
      </trkpt>
      <trkpt lat="48.5787" lon="2.52839">
        <ele>137</ele>
        <time>2019-07-14T08:43:49Z</time>
      </trkpt>
      <trkpt lat="48.5788" lon="2.52844">
        <ele>138</ele>
        <time>2019-07-14T08:43:50Z</time>
      </trkpt>
      <trkpt lat="48.5789" lon="2.52858">
        <ele>138</ele>
        <time>2019-07-14T08:43:53Z</time>
      </trkpt>
      <trkpt lat="48.57896" lon="2.52871">
        <ele>139</ele>
        <time>2019-07-14T08:43:56Z</time>
      </trkpt>
      <trkpt lat="48.57897" lon="2.52885">
        <ele>138</ele>
        <time>2019-07-14T08:43:59Z</time>
      </trkpt>
      <trkpt lat="48.57902" lon="2.52897">
        <ele>138</ele>
        <time>2019-07-14T08:44:02Z</time>
      </trkpt>
      <trkpt lat="48.57909" lon="2.52914">
        <ele>139</ele>
        <time>2019-07-14T08:44:04Z</time>
      </trkpt>
      <trkpt lat="48.57912" lon="2.52928">
        <ele>138</ele>
        <time>2019-07-14T08:44:06Z</time>
      </trkpt>
      <trkpt lat="48.57917" lon="2.52941">
        <ele>139</ele>
        <time>2019-07-14T08:44:09Z</time>
      </trkpt>
      <trkpt lat="48.57921" lon="2.52956">
        <ele>138</ele>
        <time>2019-07-14T08:44:12Z</time>
      </trkpt>
      <trkpt lat="48.57926" lon="2.52971">
        <ele>135</ele>
        <time>2019-07-14T08:44:14Z</time>
      </trkpt>
      <trkpt lat="48.57933" lon="2.5298">
        <ele>135</ele>
        <time>2019-07-14T08:44:16Z</time>
      </trkpt>
      <trkpt lat="48.57941" lon="2.52993">
        <ele>137</ele>
        <time>2019-07-14T08:44:18Z</time>
      </trkpt>
      <trkpt lat="48.57948" lon="2.53013">
        <ele>138</ele>
        <time>2019-07-14T08:44:21Z</time>
      </trkpt>
      <trkpt lat="48.57957" lon="2.53025">
        <ele>137</ele>
        <time>2019-07-14T08:44:23Z</time>
      </trkpt>
      <trkpt lat="48.57968" lon="2.53032">
        <ele>137</ele>
        <time>2019-07-14T08:44:26Z</time>
      </trkpt>
      <trkpt lat="48.5798" lon="2.53043">
        <ele>137</ele>
        <time>2019-07-14T08:44:29Z</time>
      </trkpt>
      <trkpt lat="48.57988" lon="2.5305">
        <ele>139</ele>
        <time>2019-07-14T08:44:32Z</time>
      </trkpt>
      <trkpt lat="48.57998" lon="2.5306">
        <ele>137</ele>
        <time>2019-07-14T08:44:35Z</time>
      </trkpt>
      <trkpt lat="48.58" lon="2.53076">
        <ele>137</ele>
        <time>2019-07-14T08:44:37Z</time>
      </trkpt>
      <trkpt lat="48.58004" lon="2.53092">
        <ele>138</ele>
        <time>2019-07-14T08:44:39Z</time>
      </trkpt>
      <trkpt lat="48.58011" lon="2.53104">
        <ele>139</ele>
        <time>2019-07-14T08:44:41Z</time>
      </trkpt>
      <trkpt lat="48.58019" lon="2.53114">
        <ele>140</ele>
        <time>2019-07-14T08:44:43Z</time>
      </trkpt>
      <trkpt lat="48.58032" lon="2.53127">
        <ele>142</ele>
        <time>2019-07-14T08:44:46Z</time>
      </trkpt>
      <trkpt lat="48.58041" lon="2.53136">
        <ele>141</ele>
        <time>2019-07-14T08:44:48Z</time>
      </trkpt>
      <trkpt lat="48.5805" lon="2.53141">
        <ele>138</ele>
        <time>2019-07-14T08:44:50Z</time>
      </trkpt>
      <trkpt lat="48.58061" lon="2.53153">
        <ele>141</ele>
        <time>2019-07-14T08:44:53Z</time>
      </trkpt>
      <trkpt lat="48.58069" lon="2.53161">
        <ele>142</ele>
        <time>2019-07-14T08:44:56Z</time>
      </trkpt>
      <trkpt lat="48.58079" lon="2.53164">
        <ele>141</ele>
        <time>2019-07-14T08:44:58Z</time>
      </trkpt>
      <trkpt lat="48.58087" lon="2.53173">
        <ele>143</ele>
        <time>2019-07-14T08:45:01Z</time>
      </trkpt>
      <trkpt lat="48.58091" lon="2.53191">
        <ele>145</ele>
        <time>2019-07-14T08:45:05Z</time>
      </trkpt>
      <trkpt lat="48.58102" lon="2.53197">
        <ele>142</ele>
        <time>2019-07-14T08:45:07Z</time>
      </trkpt>
      <trkpt lat="48.58112" lon="2.53197">
        <ele>141</ele>
        <time>2019-07-14T08:45:09Z</time>
      </trkpt>
      <trkpt lat="48.58121" lon="2.53198">
        <ele>142</ele>
        <time>2019-07-14T08:45:13Z</time>
      </trkpt>
      <trkpt lat="48.58132" lon="2.53191">
        <ele>139</ele>
        <time>2019-07-14T08:45:22Z</time>
      </trkpt>
      <trkpt lat="48.58132" lon="2.53188">
        <ele>137</ele>
        <time>2019-07-14T08:45:25Z</time>
      </trkpt>
      <trkpt lat="48.58132" lon="2.53188">
        <ele>137</ele>
        <time>2019-07-14T08:45:25Z</time>
      </trkpt>
      <trkpt lat="48.58134" lon="2.53205">
        <ele>132</ele>
        <time>2019-07-14T08:46:05Z</time>
      </trkpt>
      <trkpt lat="48.58146" lon="2.53211">
        <ele>134</ele>
        <time>2019-07-14T08:46:08Z</time>
      </trkpt>
      <trkpt lat="48.58149" lon="2.53227">
        <ele>135</ele>
        <time>2019-07-14T08:46:11Z</time>
      </trkpt>
      <trkpt lat="48.58151" lon="2.5324">
        <ele>136</ele>
        <time>2019-07-14T08:46:14Z</time>
      </trkpt>
      <trkpt lat="48.58158" lon="2.53248">
        <ele>134</ele>
        <time>2019-07-14T08:46:17Z</time>
      </trkpt>
      <trkpt lat="48.58165" lon="2.53259">
        <ele>137</ele>
        <time>2019-07-14T08:46:20Z</time>
      </trkpt>
      <trkpt lat="48.58172" lon="2.53269">
        <ele>136</ele>
        <time>2019-07-14T08:46:22Z</time>
      </trkpt>
      <trkpt lat="48.5818" lon="2.53284">
        <ele>137</ele>
        <time>2019-07-14T08:46:25Z</time>
      </trkpt>
      <trkpt lat="48.58185" lon="2.53299">
        <ele>137</ele>
        <time>2019-07-14T08:46:27Z</time>
      </trkpt>
      <trkpt lat="48.58194" lon="2.53311">
        <ele>135</ele>
        <time>2019-07-14T08:46:30Z</time>
      </trkpt>
      <trkpt lat="48.58203" lon="2.53326">
        <ele>136</ele>
        <time>2019-07-14T08:46:33Z</time>
      </trkpt>
      <trkpt lat="48.58214" lon="2.53338">
        <ele>137</ele>
        <time>2019-07-14T08:46:38Z</time>
      </trkpt>
      <trkpt lat="48.58217" lon="2.53355">
        <ele>137</ele>
        <time>2019-07-14T08:46:40Z</time>
      </trkpt>
      <trkpt lat="48.58229" lon="2.53357">
        <ele>135</ele>
        <time>2019-07-14T08:46:42Z</time>
      </trkpt>
      <trkpt lat="48.58237" lon="2.53369">
        <ele>134</ele>
        <time>2019-07-14T08:46:44Z</time>
      </trkpt>
      <trkpt lat="48.58244" lon="2.53378">
        <ele>136</ele>
        <time>2019-07-14T08:46:46Z</time>
      </trkpt>
      <trkpt lat="48.58246" lon="2.53396">
        <ele>134</ele>
        <time>2019-07-14T08:46:50Z</time>
      </trkpt>
      <trkpt lat="48.58256" lon="2.53401">
        <ele>132</ele>
        <time>2019-07-14T08:46:52Z</time>
      </trkpt>
      <trkpt lat="48.58266" lon="2.53414">
        <ele>131</ele>
        <time>2019-07-14T08:46:54Z</time>
      </trkpt>
      <trkpt lat="48.58275" lon="2.53422">
        <ele>133</ele>
        <time>2019-07-14T08:46:56Z</time>
      </trkpt>
      <trkpt lat="48.58283" lon="2.53433">
        <ele>136</ele>
        <time>2019-07-14T08:46:59Z</time>
      </trkpt>
      <trkpt lat="48.58292" lon="2.53449">
        <ele>137</ele>
        <time>2019-07-14T08:47:01Z</time>
      </trkpt>
      <trkpt lat="48.58301" lon="2.5346">
        <ele>136</ele>
        <time>2019-07-14T08:47:03Z</time>
      </trkpt>
      <trkpt lat="48.58303" lon="2.53477">
        <ele>137</ele>
        <time>2019-07-14T08:47:05Z</time>
      </trkpt>
      <trkpt lat="48.58311" lon="2.53495">
        <ele>139</ele>
        <time>2019-07-14T08:47:08Z</time>
      </trkpt>
      <trkpt lat="48.5832" lon="2.53502">
        <ele>140</ele>
        <time>2019-07-14T08:47:10Z</time>
      </trkpt>
      <trkpt lat="48.5833" lon="2.53509">
        <ele>139</ele>
        <time>2019-07-14T08:47:12Z</time>
      </trkpt>
      <trkpt lat="48.58337" lon="2.53523">
        <ele>140</ele>
        <time>2019-07-14T08:47:15Z</time>
      </trkpt>
      <trkpt lat="48.58344" lon="2.53534">
        <ele>141</ele>
        <time>2019-07-14T08:47:17Z</time>
      </trkpt>
      <trkpt lat="48.58352" lon="2.53544">
        <ele>141</ele>
        <time>2019-07-14T08:47:19Z</time>
      </trkpt>
      <trkpt lat="48.58361" lon="2.53558">
        <ele>140</ele>
        <time>2019-07-14T08:47:22Z</time>
      </trkpt>
      <trkpt lat="48.58364" lon="2.53572">
        <ele>138</ele>
        <time>2019-07-14T08:47:25Z</time>
      </trkpt>
      <trkpt lat="48.5837" lon="2.53587">
        <ele>141</ele>
        <time>2019-07-14T08:47:28Z</time>
      </trkpt>
      <trkpt lat="48.58378" lon="2.53597">
        <ele>139</ele>
        <time>2019-07-14T08:47:30Z</time>
      </trkpt>
      <trkpt lat="48.58387" lon="2.53611">
        <ele>139</ele>
        <time>2019-07-14T08:47:32Z</time>
      </trkpt>
      <trkpt lat="48.58394" lon="2.5362">
        <ele>141</ele>
        <time>2019-07-14T08:47:34Z</time>
      </trkpt>
      <trkpt lat="48.58399" lon="2.53634">
        <ele>138</ele>
        <time>2019-07-14T08:47:37Z</time>
      </trkpt>
      <trkpt lat="48.58404" lon="2.53647">
        <ele>143</ele>
        <time>2019-07-14T08:47:41Z</time>
      </trkpt>
      <trkpt lat="48.5841" lon="2.53659">
        <ele>142</ele>
        <time>2019-07-14T08:47:43Z</time>
      </trkpt>
      <trkpt lat="48.58418" lon="2.53674">
        <ele>139</ele>
        <time>2019-07-14T08:47:45Z</time>
      </trkpt>
      <trkpt lat="48.58431" lon="2.53689">
        <ele>137</ele>
        <time>2019-07-14T08:47:48Z</time>
      </trkpt>
      <trkpt lat="48.5844" lon="2.53704">
        <ele>140</ele>
        <time>2019-07-14T08:47:52Z</time>
      </trkpt>
      <trkpt lat="48.58452" lon="2.53713">
        <ele>137</ele>
        <time>2019-07-14T08:47:55Z</time>
      </trkpt>
      <trkpt lat="48.58457" lon="2.53725">
        <ele>139</ele>
        <time>2019-07-14T08:47:57Z</time>
      </trkpt>
      <trkpt lat="48.58464" lon="2.53737">
        <ele>140</ele>
        <time>2019-07-14T08:47:59Z</time>
      </trkpt>
      <trkpt lat="48.58468" lon="2.5375">
        <ele>139</ele>
        <time>2019-07-14T08:48:01Z</time>
      </trkpt>
      <trkpt lat="48.58477" lon="2.53758">
        <ele>137</ele>
        <time>2019-07-14T08:48:03Z</time>
      </trkpt>
      <trkpt lat="48.58487" lon="2.53767">
        <ele>137</ele>
        <time>2019-07-14T08:48:06Z</time>
      </trkpt>
      <trkpt lat="48.58493" lon="2.53782">
        <ele>137</ele>
        <time>2019-07-14T08:48:08Z</time>
      </trkpt>
      <trkpt lat="48.58506" lon="2.53793">
        <ele>138</ele>
        <time>2019-07-14T08:48:11Z</time>
      </trkpt>
      <trkpt lat="48.58517" lon="2.53799">
        <ele>139</ele>
        <time>2019-07-14T08:48:14Z</time>
      </trkpt>
      <trkpt lat="48.5852" lon="2.53813">
        <ele>142</ele>
        <time>2019-07-14T08:48:17Z</time>
      </trkpt>
      <trkpt lat="48.5853" lon="2.5381">
        <ele>143</ele>
        <time>2019-07-14T08:48:20Z</time>
      </trkpt>
      <trkpt lat="48.58539" lon="2.53808">
        <ele>141</ele>
        <time>2019-07-14T08:48:23Z</time>
      </trkpt>
      <trkpt lat="48.58543" lon="2.5382">
        <ele>141</ele>
        <time>2019-07-14T08:48:30Z</time>
      </trkpt>
      <trkpt lat="48.58538" lon="2.53836">
        <ele>143</ele>
        <time>2019-07-14T08:48:38Z</time>
      </trkpt>
      <trkpt lat="48.58535" lon="2.53836">
        <ele>140</ele>
        <time>2019-07-14T08:48:43Z</time>
      </trkpt>
      <trkpt lat="48.58535" lon="2.53836">
        <ele>140</ele>
        <time>2019-07-14T08:48:43Z</time>
      </trkpt>
      <trkpt lat="48.58503" lon="2.53825">
        <ele>141</ele>
        <time>2019-07-14T08:48:55Z</time>
      </trkpt>
      <trkpt lat="48.58493" lon="2.5383">
        <ele>144</ele>
        <time>2019-07-14T08:48:58Z</time>
      </trkpt>
      <trkpt lat="48.58484" lon="2.53834">
        <ele>144</ele>
        <time>2019-07-14T08:49:02Z</time>
      </trkpt>
      <trkpt lat="48.58476" lon="2.53847">
        <ele>144</ele>
        <time>2019-07-14T08:49:05Z</time>
      </trkpt>
      <trkpt lat="48.58463" lon="2.53856">
        <ele>145</ele>
        <time>2019-07-14T08:49:09Z</time>
      </trkpt>
      <trkpt lat="48.5845" lon="2.53856">
        <ele>139</ele>
        <time>2019-07-14T08:49:11Z</time>
      </trkpt>
      <trkpt lat="48.58446" lon="2.53871">
        <ele>140</ele>
        <time>2019-07-14T08:49:13Z</time>
      </trkpt>
      <trkpt lat="48.58433" lon="2.53877">
        <ele>139</ele>
        <time>2019-07-14T08:49:15Z</time>
      </trkpt>
      <trkpt lat="48.58425" lon="2.53889">
        <ele>139</ele>
        <time>2019-07-14T08:49:18Z</time>
      </trkpt>
      <trkpt lat="48.58414" lon="2.53899">
        <ele>143</ele>
        <time>2019-07-14T08:49:24Z</time>
      </trkpt>
      <trkpt lat="48.58405" lon="2.53903">
        <ele>144</ele>
        <time>2019-07-14T08:49:25Z</time>
      </trkpt>
      <trkpt lat="48.58395" lon="2.53914">
        <ele>146</ele>
        <time>2019-07-14T08:49:28Z</time>
      </trkpt>
      <trkpt lat="48.58387" lon="2.53921">
        <ele>149</ele>
        <time>2019-07-14T08:49:31Z</time>
      </trkpt>
      <trkpt lat="48.58376" lon="2.53931">
        <ele>148</ele>
        <time>2019-07-14T08:49:33Z</time>
      </trkpt>
      <trkpt lat="48.58365" lon="2.53932">
        <ele>149</ele>
        <time>2019-07-14T08:49:36Z</time>
      </trkpt>
      <trkpt lat="48.58355" lon="2.53942">
        <ele>148</ele>
        <time>2019-07-14T08:49:38Z</time>
      </trkpt>
      <trkpt lat="48.58347" lon="2.5395">
        <ele>149</ele>
        <time>2019-07-14T08:49:40Z</time>
      </trkpt>
      <trkpt lat="48.58337" lon="2.53966">
        <ele>148</ele>
        <time>2019-07-14T08:49:42Z</time>
      </trkpt>
      <trkpt lat="48.5833" lon="2.53979">
        <ele>148</ele>
        <time>2019-07-14T08:49:43Z</time>
      </trkpt>
      <trkpt lat="48.58321" lon="2.53981">
        <ele>148</ele>
        <time>2019-07-14T08:49:44Z</time>
      </trkpt>
      <trkpt lat="48.58305" lon="2.53979">
        <ele>148</ele>
        <time>2019-07-14T08:49:46Z</time>
      </trkpt>
      <trkpt lat="48.58299" lon="2.53996">
        <ele>150</ele>
        <time>2019-07-14T08:49:49Z</time>
      </trkpt>
      <trkpt lat="48.58292" lon="2.54007">
        <ele>151</ele>
        <time>2019-07-14T08:49:51Z</time>
      </trkpt>
      <trkpt lat="48.5829" lon="2.54014">
        <ele>152</ele>
        <time>2019-07-14T08:49:52Z</time>
      </trkpt>
      <trkpt lat="48.58285" lon="2.5402">
        <ele>153</ele>
        <time>2019-07-14T08:49:53Z</time>
      </trkpt>
      <trkpt lat="48.58277" lon="2.54022">
        <ele>152</ele>
        <time>2019-07-14T08:49:54Z</time>
      </trkpt>
      <trkpt lat="48.58263" lon="2.54025">
        <ele>157</ele>
        <time>2019-07-14T08:49:57Z</time>
      </trkpt>
      <trkpt lat="48.58258" lon="2.54036">
        <ele>154</ele>
        <time>2019-07-14T08:49:58Z</time>
      </trkpt>
      <trkpt lat="48.5825" lon="2.54041">
        <ele>152</ele>
        <time>2019-07-14T08:50:00Z</time>
      </trkpt>
      <trkpt lat="48.58238" lon="2.54053">
        <ele>147</ele>
        <time>2019-07-14T08:50:02Z</time>
      </trkpt>
      <trkpt lat="48.58229" lon="2.54061">
        <ele>147</ele>
        <time>2019-07-14T08:50:04Z</time>
      </trkpt>
      <trkpt lat="48.58217" lon="2.54065">
        <ele>147</ele>
        <time>2019-07-14T08:50:06Z</time>
      </trkpt>
      <trkpt lat="48.58209" lon="2.54074">
        <ele>145</ele>
        <time>2019-07-14T08:50:08Z</time>
      </trkpt>
      <trkpt lat="48.58201" lon="2.54085">
        <ele>144</ele>
        <time>2019-07-14T08:50:10Z</time>
      </trkpt>
      <trkpt lat="48.58192" lon="2.541">
        <ele>146</ele>
        <time>2019-07-14T08:50:12Z</time>
      </trkpt>
      <trkpt lat="48.58183" lon="2.54108">
        <ele>145</ele>
        <time>2019-07-14T08:50:14Z</time>
      </trkpt>
      <trkpt lat="48.5817" lon="2.54111">
        <ele>144</ele>
        <time>2019-07-14T08:50:16Z</time>
      </trkpt>
      <trkpt lat="48.5816" lon="2.54122">
        <ele>144</ele>
        <time>2019-07-14T08:50:18Z</time>
      </trkpt>
      <trkpt lat="48.58154" lon="2.54138">
        <ele>141</ele>
        <time>2019-07-14T08:50:20Z</time>
      </trkpt>
      <trkpt lat="48.58143" lon="2.54152">
        <ele>139</ele>
        <time>2019-07-14T08:50:22Z</time>
      </trkpt>
      <trkpt lat="48.58132" lon="2.54161">
        <ele>139</ele>
        <time>2019-07-14T08:50:24Z</time>
      </trkpt>
      <trkpt lat="48.58122" lon="2.54165">
        <ele>138</ele>
        <time>2019-07-14T08:50:26Z</time>
      </trkpt>
      <trkpt lat="48.58112" lon="2.54171">
        <ele>137</ele>
        <time>2019-07-14T08:50:28Z</time>
      </trkpt>
      <trkpt lat="48.58102" lon="2.54176">
        <ele>136</ele>
        <time>2019-07-14T08:50:30Z</time>
      </trkpt>
      <trkpt lat="48.58094" lon="2.54184">
        <ele>136</ele>
        <time>2019-07-14T08:50:32Z</time>
      </trkpt>
      <trkpt lat="48.58086" lon="2.54192">
        <ele>135</ele>
        <time>2019-07-14T08:50:34Z</time>
      </trkpt>
      <trkpt lat="48.58069" lon="2.54193">
        <ele>138</ele>
        <time>2019-07-14T08:50:36Z</time>
      </trkpt>
      <trkpt lat="48.58059" lon="2.54199">
        <ele>137</ele>
        <time>2019-07-14T08:50:38Z</time>
      </trkpt>
      <trkpt lat="48.58046" lon="2.54208">
        <ele>135</ele>
        <time>2019-07-14T08:50:40Z</time>
      </trkpt>
      <trkpt lat="48.58039" lon="2.54227">
        <ele>136</ele>
        <time>2019-07-14T08:50:43Z</time>
      </trkpt>
      <trkpt lat="48.58031" lon="2.54235">
        <ele>135</ele>
        <time>2019-07-14T08:50:45Z</time>
      </trkpt>
      <trkpt lat="48.58027" lon="2.54254">
        <ele>136</ele>
        <time>2019-07-14T08:50:47Z</time>
      </trkpt>
      <trkpt lat="48.5802" lon="2.54262">
        <ele>134</ele>
        <time>2019-07-14T08:50:49Z</time>
      </trkpt>
      <trkpt lat="48.58011" lon="2.54267">
        <ele>135</ele>
        <time>2019-07-14T08:50:51Z</time>
      </trkpt>
      <trkpt lat="48.58001" lon="2.54272">
        <ele>134</ele>
        <time>2019-07-14T08:50:54Z</time>
      </trkpt>
      <trkpt lat="48.57989" lon="2.54277">
        <ele>135</ele>
        <time>2019-07-14T08:50:56Z</time>
      </trkpt>
      <trkpt lat="48.57978" lon="2.54285">
        <ele>135</ele>
        <time>2019-07-14T08:50:58Z</time>
      </trkpt>
      <trkpt lat="48.57964" lon="2.54286">
        <ele>134</ele>
        <time>2019-07-14T08:51:00Z</time>
      </trkpt>
      <trkpt lat="48.57957" lon="2.54301">
        <ele>137</ele>
        <time>2019-07-14T08:51:03Z</time>
      </trkpt>
      <trkpt lat="48.57945" lon="2.54309">
        <ele>138</ele>
        <time>2019-07-14T08:51:06Z</time>
      </trkpt>
      <trkpt lat="48.57934" lon="2.54317">
        <ele>141</ele>
        <time>2019-07-14T08:51:09Z</time>
      </trkpt>
      <trkpt lat="48.57924" lon="2.54319">
        <ele>141</ele>
        <time>2019-07-14T08:51:10Z</time>
      </trkpt>
      <trkpt lat="48.57912" lon="2.54326">
        <ele>141</ele>
        <time>2019-07-14T08:51:12Z</time>
      </trkpt>
      <trkpt lat="48.57903" lon="2.54337">
        <ele>138</ele>
        <time>2019-07-14T08:51:14Z</time>
      </trkpt>
      <trkpt lat="48.57888" lon="2.54343">
        <ele>138</ele>
        <time>2019-07-14T08:51:16Z</time>
      </trkpt>
      <trkpt lat="48.57882" lon="2.54359">
        <ele>134</ele>
        <time>2019-07-14T08:51:18Z</time>
      </trkpt>
      <trkpt lat="48.57873" lon="2.54371">
        <ele>135</ele>
        <time>2019-07-14T08:51:20Z</time>
      </trkpt>
      <trkpt lat="48.57862" lon="2.54378">
        <ele>138</ele>
        <time>2019-07-14T08:51:22Z</time>
      </trkpt>
      <trkpt lat="48.57851" lon="2.54384">
        <ele>138</ele>
        <time>2019-07-14T08:51:24Z</time>
      </trkpt>
      <trkpt lat="48.57842" lon="2.54399">
        <ele>139</ele>
        <time>2019-07-14T08:51:27Z</time>
      </trkpt>
      <trkpt lat="48.57833" lon="2.5441">
        <ele>143</ele>
        <time>2019-07-14T08:51:30Z</time>
      </trkpt>
      <trkpt lat="48.57824" lon="2.54419">
        <ele>143</ele>
        <time>2019-07-14T08:51:32Z</time>
      </trkpt>
      <trkpt lat="48.57816" lon="2.54431">
        <ele>145</ele>
        <time>2019-07-14T08:51:35Z</time>
      </trkpt>
      <trkpt lat="48.57808" lon="2.5444">
        <ele>146</ele>
        <time>2019-07-14T08:51:37Z</time>
      </trkpt>
      <trkpt lat="48.57795" lon="2.54442">
        <ele>145</ele>
        <time>2019-07-14T08:51:39Z</time>
      </trkpt>
      <trkpt lat="48.57779" lon="2.54448">
        <ele>144</ele>
        <time>2019-07-14T08:51:41Z</time>
      </trkpt>
      <trkpt lat="48.57768" lon="2.54456">
        <ele>143</ele>
        <time>2019-07-14T08:51:43Z</time>
      </trkpt>
      <trkpt lat="48.5776" lon="2.54467">
        <ele>142</ele>
        <time>2019-07-14T08:51:44Z</time>
      </trkpt>
      <trkpt lat="48.57745" lon="2.5448">
        <ele>140</ele>
        <time>2019-07-14T08:51:46Z</time>
      </trkpt>
      <trkpt lat="48.57733" lon="2.54489">
        <ele>139</ele>
        <time>2019-07-14T08:51:48Z</time>
      </trkpt>
      <trkpt lat="48.57716" lon="2.54498">
        <ele>140</ele>
        <time>2019-07-14T08:51:50Z</time>
      </trkpt>
      <trkpt lat="48.57707" lon="2.54502">
        <ele>141</ele>
        <time>2019-07-14T08:51:52Z</time>
      </trkpt>
      <trkpt lat="48.57698" lon="2.54513">
        <ele>142</ele>
        <time>2019-07-14T08:51:54Z</time>
      </trkpt>
      <trkpt lat="48.57688" lon="2.54517">
        <ele>142</ele>
        <time>2019-07-14T08:51:56Z</time>
      </trkpt>
      <trkpt lat="48.57673" lon="2.5454">
        <ele>143</ele>
        <time>2019-07-14T08:52:01Z</time>
      </trkpt>
      <trkpt lat="48.57664" lon="2.54543">
        <ele>145</ele>
        <time>2019-07-14T08:52:04Z</time>
      </trkpt>
      <trkpt lat="48.57655" lon="2.54558">
        <ele>145</ele>
        <time>2019-07-14T08:52:07Z</time>
      </trkpt>
      <trkpt lat="48.57645" lon="2.54563">
        <ele>145</ele>
        <time>2019-07-14T08:52:09Z</time>
      </trkpt>
      <trkpt lat="48.57629" lon="2.54571">
        <ele>141</ele>
        <time>2019-07-14T08:52:11Z</time>
      </trkpt>
      <trkpt lat="48.57621" lon="2.54586">
        <ele>139</ele>
        <time>2019-07-14T08:52:13Z</time>
      </trkpt>
      <trkpt lat="48.57612" lon="2.54593">
        <ele>137</ele>
        <time>2019-07-14T08:52:15Z</time>
      </trkpt>
      <trkpt lat="48.57605" lon="2.54625">
        <ele>138</ele>
        <time>2019-07-14T08:52:17Z</time>
      </trkpt>
      <trkpt lat="48.57589" lon="2.5463">
        <ele>139</ele>
        <time>2019-07-14T08:52:20Z</time>
      </trkpt>
      <trkpt lat="48.57582" lon="2.54641">
        <ele>141</ele>
        <time>2019-07-14T08:52:22Z</time>
      </trkpt>
      <trkpt lat="48.57571" lon="2.54642">
        <ele>141</ele>
        <time>2019-07-14T08:52:24Z</time>
      </trkpt>
      <trkpt lat="48.57563" lon="2.54649">
        <ele>141</ele>
        <time>2019-07-14T08:52:27Z</time>
      </trkpt>
      <trkpt lat="48.57548" lon="2.54654">
        <ele>141</ele>
        <time>2019-07-14T08:52:29Z</time>
      </trkpt>
      <trkpt lat="48.5754" lon="2.54666">
        <ele>141</ele>
        <time>2019-07-14T08:52:32Z</time>
      </trkpt>
      <trkpt lat="48.57529" lon="2.54673">
        <ele>133</ele>
        <time>2019-07-14T08:52:35Z</time>
      </trkpt>
      <trkpt lat="48.57526" lon="2.54687">
        <ele>135</ele>
        <time>2019-07-14T08:52:37Z</time>
      </trkpt>
      <trkpt lat="48.57526" lon="2.54702">
        <ele>135</ele>
        <time>2019-07-14T08:52:39Z</time>
      </trkpt>
      <trkpt lat="48.5753" lon="2.5472">
        <ele>134</ele>
        <time>2019-07-14T08:52:41Z</time>
      </trkpt>
      <trkpt lat="48.57537" lon="2.54733">
        <ele>134</ele>
        <time>2019-07-14T08:52:44Z</time>
      </trkpt>
      <trkpt lat="48.57542" lon="2.54747">
        <ele>135</ele>
        <time>2019-07-14T08:52:47Z</time>
      </trkpt>
      <trkpt lat="48.57546" lon="2.5476">
        <ele>136</ele>
        <time>2019-07-14T08:52:50Z</time>
      </trkpt>
      <trkpt lat="48.57553" lon="2.54773">
        <ele>139</ele>
        <time>2019-07-14T08:52:53Z</time>
      </trkpt>
      <trkpt lat="48.57557" lon="2.5479">
        <ele>142</ele>
        <time>2019-07-14T08:52:56Z</time>
      </trkpt>
      <trkpt lat="48.57564" lon="2.54805">
        <ele>141</ele>
        <time>2019-07-14T08:52:59Z</time>
      </trkpt>
      <trkpt lat="48.5757" lon="2.54824">
        <ele>144</ele>
        <time>2019-07-14T08:53:02Z</time>
      </trkpt>
      <trkpt lat="48.57576" lon="2.54833">
        <ele>142</ele>
        <time>2019-07-14T08:53:04Z</time>
      </trkpt>
      <trkpt lat="48.57581" lon="2.54848">
        <ele>143</ele>
        <time>2019-07-14T08:53:06Z</time>
      </trkpt>
      <trkpt lat="48.57586" lon="2.54861">
        <ele>143</ele>
        <time>2019-07-14T08:53:08Z</time>
      </trkpt>
      <trkpt lat="48.57593" lon="2.54877">
        <ele>140</ele>
        <time>2019-07-14T08:53:11Z</time>
      </trkpt>
      <trkpt lat="48.57597" lon="2.54891">
        <ele>140</ele>
        <time>2019-07-14T08:53:13Z</time>
      </trkpt>
      <trkpt lat="48.57605" lon="2.54909">
        <ele>137</ele>
        <time>2019-07-14T08:53:16Z</time>
      </trkpt>
      <trkpt lat="48.57611" lon="2.54923">
        <ele>139</ele>
        <time>2019-07-14T08:53:18Z</time>
      </trkpt>
      <trkpt lat="48.57616" lon="2.54937">
        <ele>138</ele>
        <time>2019-07-14T08:53:20Z</time>
      </trkpt>
      <trkpt lat="48.57623" lon="2.54947">
        <ele>137</ele>
        <time>2019-07-14T08:53:22Z</time>
      </trkpt>
      <trkpt lat="48.57627" lon="2.54962">
        <ele>137</ele>
        <time>2019-07-14T08:53:24Z</time>
      </trkpt>
      <trkpt lat="48.5763" lon="2.54978">
        <ele>136</ele>
        <time>2019-07-14T08:53:26Z</time>
      </trkpt>
      <trkpt lat="48.57635" lon="2.54993">
        <ele>134</ele>
        <time>2019-07-14T08:53:29Z</time>
      </trkpt>
      <trkpt lat="48.57638" lon="2.5501">
        <ele>134</ele>
        <time>2019-07-14T08:53:32Z</time>
      </trkpt>
      <trkpt lat="48.57643" lon="2.55023">
        <ele>135</ele>
        <time>2019-07-14T08:53:34Z</time>
      </trkpt>
      <trkpt lat="48.57653" lon="2.55034">
        <ele>135</ele>
        <time>2019-07-14T08:53:37Z</time>
      </trkpt>
      <trkpt lat="48.57659" lon="2.55045">
        <ele>134</ele>
        <time>2019-07-14T08:53:39Z</time>
      </trkpt>
      <trkpt lat="48.57666" lon="2.55058">
        <ele>134</ele>
        <time>2019-07-14T08:53:41Z</time>
      </trkpt>
      <trkpt lat="48.57676" lon="2.55071">
        <ele>133</ele>
        <time>2019-07-14T08:53:43Z</time>
      </trkpt>
      <trkpt lat="48.57679" lon="2.55086">
        <ele>136</ele>
        <time>2019-07-14T08:53:45Z</time>
      </trkpt>
      <trkpt lat="48.57686" lon="2.55097">
        <ele>135</ele>
        <time>2019-07-14T08:53:47Z</time>
      </trkpt>
      <trkpt lat="48.57686" lon="2.55111">
        <ele>135</ele>
        <time>2019-07-14T08:53:49Z</time>
      </trkpt>
      <trkpt lat="48.57689" lon="2.55125">
        <ele>140</ele>
        <time>2019-07-14T08:53:50Z</time>
      </trkpt>
      <trkpt lat="48.57692" lon="2.5514">
        <ele>141</ele>
        <time>2019-07-14T08:53:52Z</time>
      </trkpt>
      <trkpt lat="48.57702" lon="2.55154">
        <ele>141</ele>
        <time>2019-07-14T08:53:55Z</time>
      </trkpt>
      <trkpt lat="48.57717" lon="2.55174">
        <ele>140</ele>
        <time>2019-07-14T08:53:57Z</time>
      </trkpt>
      <trkpt lat="48.57715" lon="2.55188">
        <ele>141</ele>
        <time>2019-07-14T08:53:59Z</time>
      </trkpt>
      <trkpt lat="48.57715" lon="2.55206">
        <ele>141</ele>
        <time>2019-07-14T08:54:01Z</time>
      </trkpt>
      <trkpt lat="48.57716" lon="2.55226">
        <ele>141</ele>
        <time>2019-07-14T08:54:04Z</time>
      </trkpt>
      <trkpt lat="48.57724" lon="2.55236">
        <ele>138</ele>
        <time>2019-07-14T08:54:06Z</time>
      </trkpt>
      <trkpt lat="48.57729" lon="2.55248">
        <ele>135</ele>
        <time>2019-07-14T08:54:08Z</time>
      </trkpt>
      <trkpt lat="48.57737" lon="2.55262">
        <ele>134</ele>
        <time>2019-07-14T08:54:10Z</time>
      </trkpt>
      <trkpt lat="48.57743" lon="2.55276">
        <ele>134</ele>
        <time>2019-07-14T08:54:12Z</time>
      </trkpt>
      <trkpt lat="48.57748" lon="2.55288">
        <ele>138</ele>
        <time>2019-07-14T08:54:14Z</time>
      </trkpt>
      <trkpt lat="48.57755" lon="2.553">
        <ele>140</ele>
        <time>2019-07-14T08:54:16Z</time>
      </trkpt>
      <trkpt lat="48.5776" lon="2.55315">
        <ele>140</ele>
        <time>2019-07-14T08:54:18Z</time>
      </trkpt>
      <trkpt lat="48.57765" lon="2.55327">
        <ele>141</ele>
        <time>2019-07-14T08:54:20Z</time>
      </trkpt>
      <trkpt lat="48.57769" lon="2.5534">
        <ele>140</ele>
        <time>2019-07-14T08:54:22Z</time>
      </trkpt>
      <trkpt lat="48.57775" lon="2.55353">
        <ele>140</ele>
        <time>2019-07-14T08:54:24Z</time>
      </trkpt>
      <trkpt lat="48.57782" lon="2.55365">
        <ele>140</ele>
        <time>2019-07-14T08:54:26Z</time>
      </trkpt>
      <trkpt lat="48.57786" lon="2.55378">
        <ele>140</ele>
        <time>2019-07-14T08:54:28Z</time>
      </trkpt>
      <trkpt lat="48.57791" lon="2.55391">
        <ele>137</ele>
        <time>2019-07-14T08:54:30Z</time>
      </trkpt>
      <trkpt lat="48.57798" lon="2.55406">
        <ele>134</ele>
        <time>2019-07-14T08:54:33Z</time>
      </trkpt>
      <trkpt lat="48.57804" lon="2.55422">
        <ele>133</ele>
        <time>2019-07-14T08:54:36Z</time>
      </trkpt>
      <trkpt lat="48.57808" lon="2.55435">
        <ele>133</ele>
        <time>2019-07-14T08:54:38Z</time>
      </trkpt>
      <trkpt lat="48.57813" lon="2.55448">
        <ele>132</ele>
        <time>2019-07-14T08:54:40Z</time>
      </trkpt>
      <trkpt lat="48.57818" lon="2.5546">
        <ele>130</ele>
        <time>2019-07-14T08:54:42Z</time>
      </trkpt>
      <trkpt lat="48.57822" lon="2.55477">
        <ele>130</ele>
        <time>2019-07-14T08:54:45Z</time>
      </trkpt>
      <trkpt lat="48.57826" lon="2.55493">
        <ele>132</ele>
        <time>2019-07-14T08:54:48Z</time>
      </trkpt>
      <trkpt lat="48.57831" lon="2.55506">
        <ele>133</ele>
        <time>2019-07-14T08:54:50Z</time>
      </trkpt>
      <trkpt lat="48.57837" lon="2.55525">
        <ele>133</ele>
        <time>2019-07-14T08:54:53Z</time>
      </trkpt>
      <trkpt lat="48.57841" lon="2.55538">
        <ele>134</ele>
        <time>2019-07-14T08:54:55Z</time>
      </trkpt>
      <trkpt lat="48.57844" lon="2.55551">
        <ele>133</ele>
        <time>2019-07-14T08:54:57Z</time>
      </trkpt>
      <trkpt lat="48.57849" lon="2.55563">
        <ele>133</ele>
        <time>2019-07-14T08:54:59Z</time>
      </trkpt>
      <trkpt lat="48.57852" lon="2.55581">
        <ele>135</ele>
        <time>2019-07-14T08:55:02Z</time>
      </trkpt>
      <trkpt lat="48.57855" lon="2.55595">
        <ele>133</ele>
        <time>2019-07-14T08:55:04Z</time>
      </trkpt>
      <trkpt lat="48.57859" lon="2.55609">
        <ele>133</ele>
        <time>2019-07-14T08:55:06Z</time>
      </trkpt>
      <trkpt lat="48.57863" lon="2.55622">
        <ele>135</ele>
        <time>2019-07-14T08:55:08Z</time>
      </trkpt>
      <trkpt lat="48.57867" lon="2.55635">
        <ele>134</ele>
        <time>2019-07-14T08:55:10Z</time>
      </trkpt>
      <trkpt lat="48.57871" lon="2.55648">
        <ele>135</ele>
        <time>2019-07-14T08:55:12Z</time>
      </trkpt>
      <trkpt lat="48.57877" lon="2.5566">
        <ele>136</ele>
        <time>2019-07-14T08:55:15Z</time>
      </trkpt>
      <trkpt lat="48.5788" lon="2.5568">
        <ele>137</ele>
        <time>2019-07-14T08:55:18Z</time>
      </trkpt>
      <trkpt lat="48.57885" lon="2.55693">
        <ele>138</ele>
        <time>2019-07-14T08:55:20Z</time>
      </trkpt>
      <trkpt lat="48.57888" lon="2.55708">
        <ele>139</ele>
        <time>2019-07-14T08:55:22Z</time>
      </trkpt>
      <trkpt lat="48.57891" lon="2.55722">
        <ele>141</ele>
        <time>2019-07-14T08:55:24Z</time>
      </trkpt>
      <trkpt lat="48.57894" lon="2.55739">
        <ele>143</ele>
        <time>2019-07-14T08:55:27Z</time>
      </trkpt>
      <trkpt lat="48.57899" lon="2.55754">
        <ele>142</ele>
        <time>2019-07-14T08:55:29Z</time>
      </trkpt>
      <trkpt lat="48.57903" lon="2.5577">
        <ele>145</ele>
        <time>2019-07-14T08:55:32Z</time>
      </trkpt>
      <trkpt lat="48.57907" lon="2.55786">
        <ele>145</ele>
        <time>2019-07-14T08:55:35Z</time>
      </trkpt>
      <trkpt lat="48.57906" lon="2.55804">
        <ele>140</ele>
        <time>2019-07-14T08:55:38Z</time>
      </trkpt>
      <trkpt lat="48.57906" lon="2.5582">
        <ele>140</ele>
        <time>2019-07-14T08:55:41Z</time>
      </trkpt>
      <trkpt lat="48.57917" lon="2.55834">
        <ele>137</ele>
        <time>2019-07-14T08:55:43Z</time>
      </trkpt>
      <trkpt lat="48.57926" lon="2.55845">
        <ele>136</ele>
        <time>2019-07-14T08:55:45Z</time>
      </trkpt>
      <trkpt lat="48.57937" lon="2.55858">
        <ele>137</ele>
        <time>2019-07-14T08:55:47Z</time>
      </trkpt>
      <trkpt lat="48.57945" lon="2.55868">
        <ele>135</ele>
        <time>2019-07-14T08:55:49Z</time>
      </trkpt>
      <trkpt lat="48.57953" lon="2.55876">
        <ele>134</ele>
        <time>2019-07-14T08:55:51Z</time>
      </trkpt>
      <trkpt lat="48.57962" lon="2.55883">
        <ele>135</ele>
        <time>2019-07-14T08:55:53Z</time>
      </trkpt>
      <trkpt lat="48.57971" lon="2.55888">
        <ele>135</ele>
        <time>2019-07-14T08:55:55Z</time>
      </trkpt>
      <trkpt lat="48.57982" lon="2.55896">
        <ele>137</ele>
        <time>2019-07-14T08:55:58Z</time>
      </trkpt>
      <trkpt lat="48.57992" lon="2.55902">
        <ele>137</ele>
        <time>2019-07-14T08:56:00Z</time>
      </trkpt>
      <trkpt lat="48.58" lon="2.55909">
        <ele>138</ele>
        <time>2019-07-14T08:56:02Z</time>
      </trkpt>
      <trkpt lat="48.58009" lon="2.55916">
        <ele>138</ele>
        <time>2019-07-14T08:56:04Z</time>
      </trkpt>
      <trkpt lat="48.58019" lon="2.55924">
        <ele>138</ele>
        <time>2019-07-14T08:56:06Z</time>
      </trkpt>
      <trkpt lat="48.58028" lon="2.55931">
        <ele>139</ele>
        <time>2019-07-14T08:56:08Z</time>
      </trkpt>
      <trkpt lat="48.58036" lon="2.55938">
        <ele>138</ele>
        <time>2019-07-14T08:56:10Z</time>
      </trkpt>
      <trkpt lat="48.58047" lon="2.55944">
        <ele>135</ele>
        <time>2019-07-14T08:56:12Z</time>
      </trkpt>
      <trkpt lat="48.58056" lon="2.5595">
        <ele>134</ele>
        <time>2019-07-14T08:56:14Z</time>
      </trkpt>
      <trkpt lat="48.58064" lon="2.55957">
        <ele>137</ele>
        <time>2019-07-14T08:56:16Z</time>
      </trkpt>
      <trkpt lat="48.58076" lon="2.55964">
        <ele>134</ele>
        <time>2019-07-14T08:56:18Z</time>
      </trkpt>
      <trkpt lat="48.58085" lon="2.5597">
        <ele>134</ele>
        <time>2019-07-14T08:56:20Z</time>
      </trkpt>
      <trkpt lat="48.58094" lon="2.55978">
        <ele>133</ele>
        <time>2019-07-14T08:56:22Z</time>
      </trkpt>
      <trkpt lat="48.58102" lon="2.55995">
        <ele>132</ele>
        <time>2019-07-14T08:56:25Z</time>
      </trkpt>
      <trkpt lat="48.58108" lon="2.56011">
        <ele>134</ele>
        <time>2019-07-14T08:56:28Z</time>
      </trkpt>
      <trkpt lat="48.58118" lon="2.56024">
        <ele>137</ele>
        <time>2019-07-14T08:56:31Z</time>
      </trkpt>
      <trkpt lat="48.58128" lon="2.56032">
        <ele>136</ele>
        <time>2019-07-14T08:56:34Z</time>
      </trkpt>
      <trkpt lat="48.58137" lon="2.56037">
        <ele>137</ele>
        <time>2019-07-14T08:56:36Z</time>
      </trkpt>
      <trkpt lat="48.58147" lon="2.5604">
        <ele>135</ele>
        <time>2019-07-14T08:56:38Z</time>
      </trkpt>
      <trkpt lat="48.58156" lon="2.56048">
        <ele>133</ele>
        <time>2019-07-14T08:56:41Z</time>
      </trkpt>
      <trkpt lat="48.58167" lon="2.56057">
        <ele>134</ele>
        <time>2019-07-14T08:56:44Z</time>
      </trkpt>
      <trkpt lat="48.58172" lon="2.56073">
        <ele>134</ele>
        <time>2019-07-14T08:56:47Z</time>
      </trkpt>
      <trkpt lat="48.58177" lon="2.56086">
        <ele>130</ele>
        <time>2019-07-14T08:56:50Z</time>
      </trkpt>
      <trkpt lat="48.58185" lon="2.56093">
        <ele>132</ele>
        <time>2019-07-14T08:56:58Z</time>
      </trkpt>
      <trkpt lat="48.58197" lon="2.56098">
        <ele>133</ele>
        <time>2019-07-14T08:57:02Z</time>
      </trkpt>
      <trkpt lat="48.58206" lon="2.56099">
        <ele>132</ele>
        <time>2019-07-14T08:57:05Z</time>
      </trkpt>
      <trkpt lat="48.58217" lon="2.56101">
        <ele>132</ele>
        <time>2019-07-14T08:57:08Z</time>
      </trkpt>
      <trkpt lat="48.58227" lon="2.56103">
        <ele>134</ele>
        <time>2019-07-14T08:57:11Z</time>
      </trkpt>
      <trkpt lat="48.58237" lon="2.56105">
        <ele>133</ele>
        <time>2019-07-14T08:57:14Z</time>
      </trkpt>
      <trkpt lat="48.58246" lon="2.56108">
        <ele>133</ele>
        <time>2019-07-14T08:57:16Z</time>
      </trkpt>
      <trkpt lat="48.58257" lon="2.56113">
        <ele>135</ele>
        <time>2019-07-14T08:57:19Z</time>
      </trkpt>
      <trkpt lat="48.5827" lon="2.56113">
        <ele>133</ele>
        <time>2019-07-14T08:57:22Z</time>
      </trkpt>
      <trkpt lat="48.58279" lon="2.56117">
        <ele>133</ele>
        <time>2019-07-14T08:57:25Z</time>
      </trkpt>
      <trkpt lat="48.58291" lon="2.56118">
        <ele>135</ele>
        <time>2019-07-14T08:57:28Z</time>
      </trkpt>
      <trkpt lat="48.58304" lon="2.56121">
        <ele>136</ele>
        <time>2019-07-14T08:57:31Z</time>
      </trkpt>
      <trkpt lat="48.58315" lon="2.56125">
        <ele>134</ele>
        <time>2019-07-14T08:57:35Z</time>
      </trkpt>
      <trkpt lat="48.58325" lon="2.56129">
        <ele>137</ele>
        <time>2019-07-14T08:57:39Z</time>
      </trkpt>
      <trkpt lat="48.58334" lon="2.56117">
        <ele>139</ele>
        <time>2019-07-14T08:57:43Z</time>
      </trkpt>
      <trkpt lat="48.5834" lon="2.561">
        <ele>138</ele>
        <time>2019-07-14T08:57:47Z</time>
      </trkpt>
      <trkpt lat="48.58345" lon="2.56088">
        <ele>136</ele>
        <time>2019-07-14T08:57:50Z</time>
      </trkpt>
      <trkpt lat="48.58349" lon="2.56074">
        <ele>134</ele>
        <time>2019-07-14T08:57:52Z</time>
      </trkpt>
      <trkpt lat="48.58357" lon="2.56059">
        <ele>132</ele>
        <time>2019-07-14T08:57:54Z</time>
      </trkpt>
      <trkpt lat="48.58369" lon="2.56052">
        <ele>133</ele>
        <time>2019-07-14T08:57:57Z</time>
      </trkpt>
      <trkpt lat="48.58378" lon="2.56054">
        <ele>134</ele>
        <time>2019-07-14T08:57:59Z</time>
      </trkpt>
      <trkpt lat="48.58391" lon="2.56057">
        <ele>137</ele>
        <time>2019-07-14T08:58:02Z</time>
      </trkpt>
      <trkpt lat="48.584" lon="2.56064">
        <ele>140</ele>
        <time>2019-07-14T08:58:05Z</time>
      </trkpt>
      <trkpt lat="48.58411" lon="2.56069">
        <ele>141</ele>
        <time>2019-07-14T08:58:08Z</time>
      </trkpt>
      <trkpt lat="48.58421" lon="2.56074">
        <ele>141</ele>
        <time>2019-07-14T08:58:10Z</time>
      </trkpt>
      <trkpt lat="48.58432" lon="2.56083">
        <ele>142</ele>
        <time>2019-07-14T08:58:12Z</time>
      </trkpt>
      <trkpt lat="48.58443" lon="2.56095">
        <ele>143</ele>
        <time>2019-07-14T08:58:15Z</time>
      </trkpt>
      <trkpt lat="48.58452" lon="2.5611">
        <ele>139</ele>
        <time>2019-07-14T08:58:18Z</time>
      </trkpt>
      <trkpt lat="48.5846" lon="2.56125">
        <ele>137</ele>
        <time>2019-07-14T08:58:21Z</time>
      </trkpt>
      <trkpt lat="48.58466" lon="2.56142">
        <ele>136</ele>
        <time>2019-07-14T08:58:24Z</time>
      </trkpt>
      <trkpt lat="48.58472" lon="2.56152">
        <ele>135</ele>
        <time>2019-07-14T08:58:26Z</time>
      </trkpt>
      <trkpt lat="48.58479" lon="2.56162">
        <ele>135</ele>
        <time>2019-07-14T08:58:28Z</time>
      </trkpt>
      <trkpt lat="48.58486" lon="2.56172">
        <ele>134</ele>
        <time>2019-07-14T08:58:30Z</time>
      </trkpt>
      <trkpt lat="48.58492" lon="2.56183">
        <ele>134</ele>
        <time>2019-07-14T08:58:32Z</time>
      </trkpt>
      <trkpt lat="48.585" lon="2.56193">
        <ele>133</ele>
        <time>2019-07-14T08:58:34Z</time>
      </trkpt>
      <trkpt lat="48.58505" lon="2.56205">
        <ele>133</ele>
        <time>2019-07-14T08:58:36Z</time>
      </trkpt>
      <trkpt lat="48.58513" lon="2.56217">
        <ele>136</ele>
        <time>2019-07-14T08:58:38Z</time>
      </trkpt>
      <trkpt lat="48.58521" lon="2.56233">
        <ele>135</ele>
        <time>2019-07-14T08:58:41Z</time>
      </trkpt>
      <trkpt lat="48.5853" lon="2.56238">
        <ele>135</ele>
        <time>2019-07-14T08:58:44Z</time>
      </trkpt>
      <trkpt lat="48.58539" lon="2.56232">
        <ele>137</ele>
        <time>2019-07-14T08:58:47Z</time>
      </trkpt>
      <trkpt lat="48.58547" lon="2.56226">
        <ele>147</ele>
        <time>2019-07-14T08:58:51Z</time>
      </trkpt>
      <trkpt lat="48.58559" lon="2.56228">
        <ele>146</ele>
        <time>2019-07-14T08:58:55Z</time>
      </trkpt>
      <trkpt lat="48.5857" lon="2.56231">
        <ele>145</ele>
        <time>2019-07-14T08:58:58Z</time>
      </trkpt>
      <trkpt lat="48.5858" lon="2.56235">
        <ele>142</ele>
        <time>2019-07-14T08:59:01Z</time>
      </trkpt>
      <trkpt lat="48.58591" lon="2.56238">
        <ele>143</ele>
        <time>2019-07-14T08:59:04Z</time>
      </trkpt>
      <trkpt lat="48.58601" lon="2.56242">
        <ele>142</ele>
        <time>2019-07-14T08:59:07Z</time>
      </trkpt>
      <trkpt lat="48.58611" lon="2.56245">
        <ele>143</ele>
        <time>2019-07-14T08:59:10Z</time>
      </trkpt>
      <trkpt lat="48.58622" lon="2.56251">
        <ele>140</ele>
        <time>2019-07-14T08:59:13Z</time>
      </trkpt>
      <trkpt lat="48.58632" lon="2.56255">
        <ele>138</ele>
        <time>2019-07-14T08:59:16Z</time>
      </trkpt>
      <trkpt lat="48.58644" lon="2.56257">
        <ele>136</ele>
        <time>2019-07-14T08:59:19Z</time>
      </trkpt>
      <trkpt lat="48.58655" lon="2.56261">
        <ele>137</ele>
        <time>2019-07-14T08:59:22Z</time>
      </trkpt>
      <trkpt lat="48.58667" lon="2.56264">
        <ele>137</ele>
        <time>2019-07-14T08:59:25Z</time>
      </trkpt>
      <trkpt lat="48.58678" lon="2.56268">
        <ele>138</ele>
        <time>2019-07-14T08:59:28Z</time>
      </trkpt>
      <trkpt lat="48.5869" lon="2.5627">
        <ele>138</ele>
        <time>2019-07-14T08:59:31Z</time>
      </trkpt>
      <trkpt lat="48.58703" lon="2.56274">
        <ele>137</ele>
        <time>2019-07-14T08:59:34Z</time>
      </trkpt>
      <trkpt lat="48.58711" lon="2.56277">
        <ele>135</ele>
        <time>2019-07-14T08:59:36Z</time>
      </trkpt>
      <trkpt lat="48.58722" lon="2.56281">
        <ele>137</ele>
        <time>2019-07-14T08:59:39Z</time>
      </trkpt>
      <trkpt lat="48.58732" lon="2.56285">
        <ele>136</ele>
        <time>2019-07-14T08:59:41Z</time>
      </trkpt>
      <trkpt lat="48.58741" lon="2.56288">
        <ele>134</ele>
        <time>2019-07-14T08:59:43Z</time>
      </trkpt>
      <trkpt lat="48.58753" lon="2.56295">
        <ele>136</ele>
        <time>2019-07-14T08:59:46Z</time>
      </trkpt>
      <trkpt lat="48.58765" lon="2.56299">
        <ele>137</ele>
        <time>2019-07-14T08:59:49Z</time>
      </trkpt>
      <trkpt lat="48.58776" lon="2.56298">
        <ele>137</ele>
        <time>2019-07-14T08:59:52Z</time>
      </trkpt>
      <trkpt lat="48.58783" lon="2.56307">
        <ele>139</ele>
        <time>2019-07-14T08:59:55Z</time>
      </trkpt>
      <trkpt lat="48.5879" lon="2.56317">
        <ele>137</ele>
        <time>2019-07-14T08:59:58Z</time>
      </trkpt>
      <trkpt lat="48.58796" lon="2.56327">
        <ele>136</ele>
        <time>2019-07-14T09:00:01Z</time>
      </trkpt>
      <trkpt lat="48.58803" lon="2.56336">
        <ele>137</ele>
        <time>2019-07-14T09:00:05Z</time>
      </trkpt>
      <trkpt lat="48.58813" lon="2.56345">
        <ele>138</ele>
        <time>2019-07-14T09:00:09Z</time>
      </trkpt>
      <trkpt lat="48.58823" lon="2.56338">
        <ele>139</ele>
        <time>2019-07-14T09:00:13Z</time>
      </trkpt>
      <trkpt lat="48.58833" lon="2.56332">
        <ele>141</ele>
        <time>2019-07-14T09:00:17Z</time>
      </trkpt>
      <trkpt lat="48.58844" lon="2.56335">
        <ele>140</ele>
        <time>2019-07-14T09:00:21Z</time>
      </trkpt>
      <trkpt lat="48.58852" lon="2.56342">
        <ele>141</ele>
        <time>2019-07-14T09:00:23Z</time>
      </trkpt>
      <trkpt lat="48.58865" lon="2.56343">
        <ele>142</ele>
        <time>2019-07-14T09:00:25Z</time>
      </trkpt>
      <trkpt lat="48.58876" lon="2.56344">
        <ele>142</ele>
        <time>2019-07-14T09:00:27Z</time>
      </trkpt>
      <trkpt lat="48.58885" lon="2.56349">
        <ele>145</ele>
        <time>2019-07-14T09:00:29Z</time>
      </trkpt>
      <trkpt lat="48.58899" lon="2.56352">
        <ele>141</ele>
        <time>2019-07-14T09:00:31Z</time>
      </trkpt>
      <trkpt lat="48.5891" lon="2.56356">
        <ele>140</ele>
        <time>2019-07-14T09:00:33Z</time>
      </trkpt>
      <trkpt lat="48.58923" lon="2.56361">
        <ele>137</ele>
        <time>2019-07-14T09:00:36Z</time>
      </trkpt>
      <trkpt lat="48.58934" lon="2.56365">
        <ele>137</ele>
        <time>2019-07-14T09:00:38Z</time>
      </trkpt>
      <trkpt lat="48.58943" lon="2.56369">
        <ele>139</ele>
        <time>2019-07-14T09:00:40Z</time>
      </trkpt>
      <trkpt lat="48.58952" lon="2.56374">
        <ele>140</ele>
        <time>2019-07-14T09:00:42Z</time>
      </trkpt>
      <trkpt lat="48.58965" lon="2.56377">
        <ele>140</ele>
        <time>2019-07-14T09:00:45Z</time>
      </trkpt>
      <trkpt lat="48.58974" lon="2.56389">
        <ele>140</ele>
        <time>2019-07-14T09:00:48Z</time>
      </trkpt>
      <trkpt lat="48.58986" lon="2.56396">
        <ele>139</ele>
        <time>2019-07-14T09:00:50Z</time>
      </trkpt>
      <trkpt lat="48.58995" lon="2.56401">
        <ele>142</ele>
        <time>2019-07-14T09:00:53Z</time>
      </trkpt>
      <trkpt lat="48.59004" lon="2.56409">
        <ele>137</ele>
        <time>2019-07-14T09:00:56Z</time>
      </trkpt>
      <trkpt lat="48.59014" lon="2.5641">
        <ele>136</ele>
        <time>2019-07-14T09:00:58Z</time>
      </trkpt>
      <trkpt lat="48.59023" lon="2.56414">
        <ele>135</ele>
        <time>2019-07-14T09:01:00Z</time>
      </trkpt>
      <trkpt lat="48.59037" lon="2.56417">
        <ele>134</ele>
        <time>2019-07-14T09:01:03Z</time>
      </trkpt>
      <trkpt lat="48.59048" lon="2.56422">
        <ele>132</ele>
        <time>2019-07-14T09:01:06Z</time>
      </trkpt>
      <trkpt lat="48.59058" lon="2.56428">
        <ele>130</ele>
        <time>2019-07-14T09:01:09Z</time>
      </trkpt>
      <trkpt lat="48.59066" lon="2.56431">
        <ele>130</ele>
        <time>2019-07-14T09:01:11Z</time>
      </trkpt>
      <trkpt lat="48.59076" lon="2.56438">
        <ele>135</ele>
        <time>2019-07-14T09:01:13Z</time>
      </trkpt>
      <trkpt lat="48.59087" lon="2.56438">
        <ele>133</ele>
        <time>2019-07-14T09:01:16Z</time>
      </trkpt>
      <trkpt lat="48.59099" lon="2.56443">
        <ele>137</ele>
        <time>2019-07-14T09:01:19Z</time>
      </trkpt>
      <trkpt lat="48.5911" lon="2.56448">
        <ele>137</ele>
        <time>2019-07-14T09:01:23Z</time>
      </trkpt>
      <trkpt lat="48.59119" lon="2.56449">
        <ele>134</ele>
        <time>2019-07-14T09:01:25Z</time>
      </trkpt>
      <trkpt lat="48.59129" lon="2.56453">
        <ele>137</ele>
        <time>2019-07-14T09:01:27Z</time>
      </trkpt>
      <trkpt lat="48.59138" lon="2.56457">
        <ele>138</ele>
        <time>2019-07-14T09:01:29Z</time>
      </trkpt>
      <trkpt lat="48.5915" lon="2.56459">
        <ele>139</ele>
        <time>2019-07-14T09:01:31Z</time>
      </trkpt>
      <trkpt lat="48.5916" lon="2.56461">
        <ele>139</ele>
        <time>2019-07-14T09:01:33Z</time>
      </trkpt>
      <trkpt lat="48.59169" lon="2.56464">
        <ele>140</ele>
        <time>2019-07-14T09:01:35Z</time>
      </trkpt>
      <trkpt lat="48.59181" lon="2.56468">
        <ele>139</ele>
        <time>2019-07-14T09:01:39Z</time>
      </trkpt>
      <trkpt lat="48.59194" lon="2.56472">
        <ele>140</ele>
        <time>2019-07-14T09:01:42Z</time>
      </trkpt>
      <trkpt lat="48.59205" lon="2.56479">
        <ele>140</ele>
        <time>2019-07-14T09:01:45Z</time>
      </trkpt>
      <trkpt lat="48.59214" lon="2.56484">
        <ele>140</ele>
        <time>2019-07-14T09:01:48Z</time>
      </trkpt>
      <trkpt lat="48.59224" lon="2.56494">
        <ele>140</ele>
        <time>2019-07-14T09:01:51Z</time>
      </trkpt>
      <trkpt lat="48.59236" lon="2.56492">
        <ele>139</ele>
        <time>2019-07-14T09:01:52Z</time>
      </trkpt>
      <trkpt lat="48.59246" lon="2.56493">
        <ele>140</ele>
        <time>2019-07-14T09:01:54Z</time>
      </trkpt>
      <trkpt lat="48.59256" lon="2.56497">
        <ele>140</ele>
        <time>2019-07-14T09:01:56Z</time>
      </trkpt>
      <trkpt lat="48.59266" lon="2.56496">
        <ele>140</ele>
        <time>2019-07-14T09:01:58Z</time>
      </trkpt>
      <trkpt lat="48.5928" lon="2.56497">
        <ele>141</ele>
        <time>2019-07-14T09:02:01Z</time>
      </trkpt>
      <trkpt lat="48.5929" lon="2.56507">
        <ele>141</ele>
        <time>2019-07-14T09:02:05Z</time>
      </trkpt>
      <trkpt lat="48.59301" lon="2.56507">
        <ele>142</ele>
        <time>2019-07-14T09:02:07Z</time>
      </trkpt>
      <trkpt lat="48.59313" lon="2.5651">
        <ele>144</ele>
        <time>2019-07-14T09:02:09Z</time>
      </trkpt>
      <trkpt lat="48.59325" lon="2.56513">
        <ele>143</ele>
        <time>2019-07-14T09:02:12Z</time>
      </trkpt>
      <trkpt lat="48.59335" lon="2.56516">
        <ele>143</ele>
        <time>2019-07-14T09:02:14Z</time>
      </trkpt>
      <trkpt lat="48.59343" lon="2.56521">
        <ele>145</ele>
        <time>2019-07-14T09:02:16Z</time>
      </trkpt>
      <trkpt lat="48.59354" lon="2.56521">
        <ele>144</ele>
        <time>2019-07-14T09:02:19Z</time>
      </trkpt>
      <trkpt lat="48.59365" lon="2.5652">
        <ele>141</ele>
        <time>2019-07-14T09:02:22Z</time>
      </trkpt>
      <trkpt lat="48.59375" lon="2.5652">
        <ele>142</ele>
        <time>2019-07-14T09:02:24Z</time>
      </trkpt>
      <trkpt lat="48.59386" lon="2.5652">
        <ele>143</ele>
        <time>2019-07-14T09:02:27Z</time>
      </trkpt>
      <trkpt lat="48.59397" lon="2.56519">
        <ele>144</ele>
        <time>2019-07-14T09:02:30Z</time>
      </trkpt>
      <trkpt lat="48.59409" lon="2.56518">
        <ele>144</ele>
        <time>2019-07-14T09:02:33Z</time>
      </trkpt>
      <trkpt lat="48.5942" lon="2.56519">
        <ele>144</ele>
        <time>2019-07-14T09:02:35Z</time>
      </trkpt>
      <trkpt lat="48.59433" lon="2.56522">
        <ele>143</ele>
        <time>2019-07-14T09:02:38Z</time>
      </trkpt>
      <trkpt lat="48.59442" lon="2.56527">
        <ele>139</ele>
        <time>2019-07-14T09:02:41Z</time>
      </trkpt>
      <trkpt lat="48.59455" lon="2.56524">
        <ele>132</ele>
        <time>2019-07-14T09:02:44Z</time>
      </trkpt>
      <trkpt lat="48.59465" lon="2.56526">
        <ele>127</ele>
        <time>2019-07-14T09:02:46Z</time>
      </trkpt>
      <trkpt lat="48.59474" lon="2.56531">
        <ele>131</ele>
        <time>2019-07-14T09:02:48Z</time>
      </trkpt>
      <trkpt lat="48.59486" lon="2.56527">
        <ele>133</ele>
        <time>2019-07-14T09:02:51Z</time>
      </trkpt>
      <trkpt lat="48.59493" lon="2.56517">
        <ele>136</ele>
        <time>2019-07-14T09:02:54Z</time>
      </trkpt>
      <trkpt lat="48.59501" lon="2.56504">
        <ele>137</ele>
        <time>2019-07-14T09:02:57Z</time>
      </trkpt>
      <trkpt lat="48.59508" lon="2.56492">
        <ele>138</ele>
        <time>2019-07-14T09:02:59Z</time>
      </trkpt>
      <trkpt lat="48.59516" lon="2.56478">
        <ele>137</ele>
        <time>2019-07-14T09:03:01Z</time>
      </trkpt>
      <trkpt lat="48.59525" lon="2.56466">
        <ele>137</ele>
        <time>2019-07-14T09:03:04Z</time>
      </trkpt>
      <trkpt lat="48.59534" lon="2.5646">
        <ele>139</ele>
        <time>2019-07-14T09:03:06Z</time>
      </trkpt>
      <trkpt lat="48.59546" lon="2.56453">
        <ele>141</ele>
        <time>2019-07-14T09:03:09Z</time>
      </trkpt>
      <trkpt lat="48.59554" lon="2.56447">
        <ele>141</ele>
        <time>2019-07-14T09:03:11Z</time>
      </trkpt>
      <trkpt lat="48.59564" lon="2.56445">
        <ele>139</ele>
        <time>2019-07-14T09:03:13Z</time>
      </trkpt>
      <trkpt lat="48.59576" lon="2.56438">
        <ele>138</ele>
        <time>2019-07-14T09:03:16Z</time>
      </trkpt>
      <trkpt lat="48.59588" lon="2.56431">
        <ele>139</ele>
        <time>2019-07-14T09:03:19Z</time>
      </trkpt>
      <trkpt lat="48.59597" lon="2.56419">
        <ele>139</ele>
        <time>2019-07-14T09:03:21Z</time>
      </trkpt>
      <trkpt lat="48.59608" lon="2.56412">
        <ele>137</ele>
        <time>2019-07-14T09:03:24Z</time>
      </trkpt>
      <trkpt lat="48.59616" lon="2.56405">
        <ele>137</ele>
        <time>2019-07-14T09:03:26Z</time>
      </trkpt>
      <trkpt lat="48.59625" lon="2.56396">
        <ele>138</ele>
        <time>2019-07-14T09:03:28Z</time>
      </trkpt>
      <trkpt lat="48.59633" lon="2.56385">
        <ele>138</ele>
        <time>2019-07-14T09:03:30Z</time>
      </trkpt>
      <trkpt lat="48.59641" lon="2.56376">
        <ele>140</ele>
        <time>2019-07-14T09:03:32Z</time>
      </trkpt>
      <trkpt lat="48.59654" lon="2.56364">
        <ele>143</ele>
        <time>2019-07-14T09:03:35Z</time>
      </trkpt>
      <trkpt lat="48.59663" lon="2.56354">
        <ele>144</ele>
        <time>2019-07-14T09:03:37Z</time>
      </trkpt>
      <trkpt lat="48.59678" lon="2.56346">
        <ele>143</ele>
        <time>2019-07-14T09:03:40Z</time>
      </trkpt>
      <trkpt lat="48.59689" lon="2.56335">
        <ele>140</ele>
        <time>2019-07-14T09:03:42Z</time>
      </trkpt>
      <trkpt lat="48.59703" lon="2.56328">
        <ele>140</ele>
        <time>2019-07-14T09:03:45Z</time>
      </trkpt>
      <trkpt lat="48.59713" lon="2.56317">
        <ele>138</ele>
        <time>2019-07-14T09:03:47Z</time>
      </trkpt>
      <trkpt lat="48.59722" lon="2.5631">
        <ele>140</ele>
        <time>2019-07-14T09:03:49Z</time>
      </trkpt>
      <trkpt lat="48.59732" lon="2.56305">
        <ele>142</ele>
        <time>2019-07-14T09:03:51Z</time>
      </trkpt>
      <trkpt lat="48.59742" lon="2.563">
        <ele>143</ele>
        <time>2019-07-14T09:03:53Z</time>
      </trkpt>
      <trkpt lat="48.59751" lon="2.56294">
        <ele>145</ele>
        <time>2019-07-14T09:03:55Z</time>
      </trkpt>
      <trkpt lat="48.5976" lon="2.56289">
        <ele>145</ele>
        <time>2019-07-14T09:03:57Z</time>
      </trkpt>
      <trkpt lat="48.5977" lon="2.56286">
        <ele>144</ele>
        <time>2019-07-14T09:03:59Z</time>
      </trkpt>
      <trkpt lat="48.59779" lon="2.5628">
        <ele>143</ele>
        <time>2019-07-14T09:04:01Z</time>
      </trkpt>
      <trkpt lat="48.59788" lon="2.56275">
        <ele>146</ele>
        <time>2019-07-14T09:04:03Z</time>
      </trkpt>
      <trkpt lat="48.59799" lon="2.56269">
        <ele>144</ele>
        <time>2019-07-14T09:04:05Z</time>
      </trkpt>
      <trkpt lat="48.59808" lon="2.56267">
        <ele>147</ele>
        <time>2019-07-14T09:04:07Z</time>
      </trkpt>
      <trkpt lat="48.59819" lon="2.56265">
        <ele>148</ele>
        <time>2019-07-14T09:04:09Z</time>
      </trkpt>
      <trkpt lat="48.59833" lon="2.56261">
        <ele>148</ele>
        <time>2019-07-14T09:04:12Z</time>
      </trkpt>
      <trkpt lat="48.59843" lon="2.56257">
        <ele>146</ele>
        <time>2019-07-14T09:04:14Z</time>
      </trkpt>
      <trkpt lat="48.59853" lon="2.56254">
        <ele>146</ele>
        <time>2019-07-14T09:04:16Z</time>
      </trkpt>
      <trkpt lat="48.59863" lon="2.56251">
        <ele>147</ele>
        <time>2019-07-14T09:04:18Z</time>
      </trkpt>
      <trkpt lat="48.59872" lon="2.56249">
        <ele>147</ele>
        <time>2019-07-14T09:04:20Z</time>
      </trkpt>
      <trkpt lat="48.59885" lon="2.56248">
        <ele>145</ele>
        <time>2019-07-14T09:04:23Z</time>
      </trkpt>
      <trkpt lat="48.59895" lon="2.56243">
        <ele>145</ele>
        <time>2019-07-14T09:04:25Z</time>
      </trkpt>
      <trkpt lat="48.59907" lon="2.56239">
        <ele>146</ele>
        <time>2019-07-14T09:04:28Z</time>
      </trkpt>
      <trkpt lat="48.59917" lon="2.56239">
        <ele>142</ele>
        <time>2019-07-14T09:04:31Z</time>
      </trkpt>
      <trkpt lat="48.59926" lon="2.56249">
        <ele>137</ele>
        <time>2019-07-14T09:04:34Z</time>
      </trkpt>
      <trkpt lat="48.59935" lon="2.56247">
        <ele>134</ele>
        <time>2019-07-14T09:04:37Z</time>
      </trkpt>
      <trkpt lat="48.59946" lon="2.56244">
        <ele>130</ele>
        <time>2019-07-14T09:04:40Z</time>
      </trkpt>
      <trkpt lat="48.59955" lon="2.56243">
        <ele>132</ele>
        <time>2019-07-14T09:04:42Z</time>
      </trkpt>
      <trkpt lat="48.59969" lon="2.5624">
        <ele>134</ele>
        <time>2019-07-14T09:04:45Z</time>
      </trkpt>
      <trkpt lat="48.59981" lon="2.56237">
        <ele>133</ele>
        <time>2019-07-14T09:04:48Z</time>
      </trkpt>
      <trkpt lat="48.5999" lon="2.56235">
        <ele>134</ele>
        <time>2019-07-14T09:04:50Z</time>
      </trkpt>
      <trkpt lat="48.59999" lon="2.56231">
        <ele>129</ele>
        <time>2019-07-14T09:04:53Z</time>
      </trkpt>
      <trkpt lat="48.60012" lon="2.56229">
        <ele>129</ele>
        <time>2019-07-14T09:04:56Z</time>
      </trkpt>
      <trkpt lat="48.60022" lon="2.56227">
        <ele>129</ele>
        <time>2019-07-14T09:04:59Z</time>
      </trkpt>
      <trkpt lat="48.60031" lon="2.56223">
        <ele>131</ele>
        <time>2019-07-14T09:05:01Z</time>
      </trkpt>
      <trkpt lat="48.6004" lon="2.56216">
        <ele>131</ele>
        <time>2019-07-14T09:05:05Z</time>
      </trkpt>
      <trkpt lat="48.60041" lon="2.56207">
        <ele>131</ele>
        <time>2019-07-14T09:05:12Z</time>
      </trkpt>
      <trkpt lat="48.60039" lon="2.56187">
        <ele>132</ele>
        <time>2019-07-14T09:05:19Z</time>
      </trkpt>
      <trkpt lat="48.60046" lon="2.56178">
        <ele>134</ele>
        <time>2019-07-14T09:05:24Z</time>
      </trkpt>
      <trkpt lat="48.60057" lon="2.56175">
        <ele>135</ele>
        <time>2019-07-14T09:05:28Z</time>
      </trkpt>
      <trkpt lat="48.60067" lon="2.56173">
        <ele>138</ele>
        <time>2019-07-14T09:05:31Z</time>
      </trkpt>
      <trkpt lat="48.60079" lon="2.56173">
        <ele>139</ele>
        <time>2019-07-14T09:05:34Z</time>
      </trkpt>
      <trkpt lat="48.6009" lon="2.56172">
        <ele>139</ele>
        <time>2019-07-14T09:05:37Z</time>
      </trkpt>
      <trkpt lat="48.60101" lon="2.56167">
        <ele>137</ele>
        <time>2019-07-14T09:05:40Z</time>
      </trkpt>
      <trkpt lat="48.60112" lon="2.56163">
        <ele>140</ele>
        <time>2019-07-14T09:05:43Z</time>
      </trkpt>
      <trkpt lat="48.60121" lon="2.56159">
        <ele>142</ele>
        <time>2019-07-14T09:05:46Z</time>
      </trkpt>
      <trkpt lat="48.60132" lon="2.56155">
        <ele>142</ele>
        <time>2019-07-14T09:05:49Z</time>
      </trkpt>
      <trkpt lat="48.60144" lon="2.56147">
        <ele>136</ele>
        <time>2019-07-14T09:05:52Z</time>
      </trkpt>
      <trkpt lat="48.60152" lon="2.5614">
        <ele>134</ele>
        <time>2019-07-14T09:05:54Z</time>
      </trkpt>
      <trkpt lat="48.60162" lon="2.56137">
        <ele>135</ele>
        <time>2019-07-14T09:05:57Z</time>
      </trkpt>
      <trkpt lat="48.60173" lon="2.56129">
        <ele>135</ele>
        <time>2019-07-14T09:06:00Z</time>
      </trkpt>
      <trkpt lat="48.60182" lon="2.56118">
        <ele>134</ele>
        <time>2019-07-14T09:06:03Z</time>
      </trkpt>
      <trkpt lat="48.60191" lon="2.5611">
        <ele>132</ele>
        <time>2019-07-14T09:06:06Z</time>
      </trkpt>
      <trkpt lat="48.60202" lon="2.56102">
        <ele>133</ele>
        <time>2019-07-14T09:06:10Z</time>
      </trkpt>
      <trkpt lat="48.6021" lon="2.56096">
        <ele>133</ele>
        <time>2019-07-14T09:06:13Z</time>
      </trkpt>
      <trkpt lat="48.6022" lon="2.56089">
        <ele>131</ele>
        <time>2019-07-14T09:06:16Z</time>
      </trkpt>
      <trkpt lat="48.60228" lon="2.56083">
        <ele>132</ele>
        <time>2019-07-14T09:06:19Z</time>
      </trkpt>
      <trkpt lat="48.60237" lon="2.56075">
        <ele>132</ele>
        <time>2019-07-14T09:06:22Z</time>
      </trkpt>
      <trkpt lat="48.60247" lon="2.56067">
        <ele>132</ele>
        <time>2019-07-14T09:06:26Z</time>
      </trkpt>
      <trkpt lat="48.60257" lon="2.56058">
        <ele>133</ele>
        <time>2019-07-14T09:06:29Z</time>
      </trkpt>
      <trkpt lat="48.60266" lon="2.56049">
        <ele>131</ele>
        <time>2019-07-14T09:06:32Z</time>
      </trkpt>
      <trkpt lat="48.6027" lon="2.56034">
        <ele>130</ele>
        <time>2019-07-14T09:06:36Z</time>
      </trkpt>
      <trkpt lat="48.60272" lon="2.56019">
        <ele>132</ele>
        <time>2019-07-14T09:06:41Z</time>
      </trkpt>
      <trkpt lat="48.60281" lon="2.56008">
        <ele>133</ele>
        <time>2019-07-14T09:06:46Z</time>
      </trkpt>
      <trkpt lat="48.6028" lon="2.56002">
        <ele>136</ele>
        <time>2019-07-14T09:06:53Z</time>
      </trkpt>
      <trkpt lat="48.6028" lon="2.56002">
        <ele>136</ele>
        <time>2019-07-14T09:06:53Z</time>
      </trkpt>
      <trkpt lat="48.60298" lon="2.55992">
        <ele>137</ele>
        <time>2019-07-14T09:10:36Z</time>
      </trkpt>
      <trkpt lat="48.60306" lon="2.55998">
        <ele>131</ele>
        <time>2019-07-14T09:10:42Z</time>
      </trkpt>
      <trkpt lat="48.60313" lon="2.56012">
        <ele>133</ele>
        <time>2019-07-14T09:10:47Z</time>
      </trkpt>
      <trkpt lat="48.60322" lon="2.56026">
        <ele>135</ele>
        <time>2019-07-14T09:10:51Z</time>
      </trkpt>
      <trkpt lat="48.60331" lon="2.56039">
        <ele>135</ele>
        <time>2019-07-14T09:10:54Z</time>
      </trkpt>
      <trkpt lat="48.60337" lon="2.56051">
        <ele>133</ele>
        <time>2019-07-14T09:10:57Z</time>
      </trkpt>
      <trkpt lat="48.60344" lon="2.56061">
        <ele>136</ele>
        <time>2019-07-14T09:11:00Z</time>
      </trkpt>
      <trkpt lat="48.60353" lon="2.56058">
        <ele>137</ele>
        <time>2019-07-14T09:11:03Z</time>
      </trkpt>
      <trkpt lat="48.60363" lon="2.56057">
        <ele>139</ele>
        <time>2019-07-14T09:11:06Z</time>
      </trkpt>
      <trkpt lat="48.60376" lon="2.5606">
        <ele>136</ele>
        <time>2019-07-14T09:11:09Z</time>
      </trkpt>
      <trkpt lat="48.60386" lon="2.56068">
        <ele>137</ele>
        <time>2019-07-14T09:11:12Z</time>
      </trkpt>
      <trkpt lat="48.60392" lon="2.56081">
        <ele>137</ele>
        <time>2019-07-14T09:11:15Z</time>
      </trkpt>
      <trkpt lat="48.60401" lon="2.56089">
        <ele>134</ele>
        <time>2019-07-14T09:11:17Z</time>
      </trkpt>
      <trkpt lat="48.60408" lon="2.56106">
        <ele>136</ele>
        <time>2019-07-14T09:11:20Z</time>
      </trkpt>
      <trkpt lat="48.6041" lon="2.56125">
        <ele>136</ele>
        <time>2019-07-14T09:11:24Z</time>
      </trkpt>
      <trkpt lat="48.60415" lon="2.56141">
        <ele>137</ele>
        <time>2019-07-14T09:11:26Z</time>
      </trkpt>
      <trkpt lat="48.60418" lon="2.56153">
        <ele>137</ele>
        <time>2019-07-14T09:11:28Z</time>
      </trkpt>
      <trkpt lat="48.60423" lon="2.5617">
        <ele>138</ele>
        <time>2019-07-14T09:11:31Z</time>
      </trkpt>
      <trkpt lat="48.60427" lon="2.56188">
        <ele>137</ele>
        <time>2019-07-14T09:11:34Z</time>
      </trkpt>
      <trkpt lat="48.60431" lon="2.56203">
        <ele>133</ele>
        <time>2019-07-14T09:11:37Z</time>
      </trkpt>
      <trkpt lat="48.60432" lon="2.56218">
        <ele>127</ele>
        <time>2019-07-14T09:11:42Z</time>
      </trkpt>
      <trkpt lat="48.60436" lon="2.56234">
        <ele>129</ele>
        <time>2019-07-14T09:11:47Z</time>
      </trkpt>
      <trkpt lat="48.6044" lon="2.56249">
        <ele>131</ele>
        <time>2019-07-14T09:11:52Z</time>
      </trkpt>
      <trkpt lat="48.60442" lon="2.56268">
        <ele>131</ele>
        <time>2019-07-14T09:11:56Z</time>
      </trkpt>
      <trkpt lat="48.60444" lon="2.56281">
        <ele>131</ele>
        <time>2019-07-14T09:11:58Z</time>
      </trkpt>
      <trkpt lat="48.60446" lon="2.563">
        <ele>129</ele>
        <time>2019-07-14T09:12:01Z</time>
      </trkpt>
      <trkpt lat="48.60447" lon="2.56315">
        <ele>130</ele>
        <time>2019-07-14T09:12:04Z</time>
      </trkpt>
      <trkpt lat="48.6045" lon="2.56334">
        <ele>134</ele>
        <time>2019-07-14T09:12:07Z</time>
      </trkpt>
      <trkpt lat="48.60454" lon="2.56356">
        <ele>131</ele>
        <time>2019-07-14T09:12:10Z</time>
      </trkpt>
      <trkpt lat="48.60453" lon="2.56377">
        <ele>130</ele>
        <time>2019-07-14T09:12:14Z</time>
      </trkpt>
      <trkpt lat="48.60455" lon="2.56393">
        <ele>129</ele>
        <time>2019-07-14T09:12:16Z</time>
      </trkpt>
      <trkpt lat="48.60455" lon="2.56406">
        <ele>129</ele>
        <time>2019-07-14T09:12:18Z</time>
      </trkpt>
      <trkpt lat="48.60459" lon="2.56421">
        <ele>129</ele>
        <time>2019-07-14T09:12:20Z</time>
      </trkpt>
      <trkpt lat="48.60462" lon="2.56434">
        <ele>129</ele>
        <time>2019-07-14T09:12:22Z</time>
      </trkpt>
      <trkpt lat="48.60461" lon="2.56454">
        <ele>125</ele>
        <time>2019-07-14T09:12:25Z</time>
      </trkpt>
      <trkpt lat="48.60461" lon="2.56472">
        <ele>130</ele>
        <time>2019-07-14T09:12:28Z</time>
      </trkpt>
      <trkpt lat="48.60464" lon="2.56486">
        <ele>127</ele>
        <time>2019-07-14T09:12:31Z</time>
      </trkpt>
      <trkpt lat="48.60462" lon="2.56502">
        <ele>125</ele>
        <time>2019-07-14T09:12:33Z</time>
      </trkpt>
      <trkpt lat="48.60473" lon="2.56508">
        <ele>124</ele>
        <time>2019-07-14T09:12:36Z</time>
      </trkpt>
      <trkpt lat="48.60484" lon="2.56506">
        <ele>126</ele>
        <time>2019-07-14T09:12:40Z</time>
      </trkpt>
      <trkpt lat="48.60494" lon="2.56506">
        <ele>128</ele>
        <time>2019-07-14T09:12:43Z</time>
      </trkpt>
      <trkpt lat="48.60503" lon="2.56513">
        <ele>129</ele>
        <time>2019-07-14T09:12:46Z</time>
      </trkpt>
      <trkpt lat="48.60513" lon="2.56515">
        <ele>130</ele>
        <time>2019-07-14T09:12:49Z</time>
      </trkpt>
      <trkpt lat="48.60525" lon="2.56515">
        <ele>130</ele>
        <time>2019-07-14T09:12:52Z</time>
      </trkpt>
      <trkpt lat="48.60538" lon="2.56515">
        <ele>129</ele>
        <time>2019-07-14T09:12:55Z</time>
      </trkpt>
      <trkpt lat="48.60552" lon="2.56514">
        <ele>127</ele>
        <time>2019-07-14T09:12:58Z</time>
      </trkpt>
      <trkpt lat="48.60561" lon="2.56511">
        <ele>125</ele>
        <time>2019-07-14T09:13:00Z</time>
      </trkpt>
      <trkpt lat="48.60574" lon="2.56505">
        <ele>125</ele>
        <time>2019-07-14T09:13:03Z</time>
      </trkpt>
      <trkpt lat="48.60582" lon="2.565">
        <ele>125</ele>
        <time>2019-07-14T09:13:05Z</time>
      </trkpt>
      <trkpt lat="48.60593" lon="2.56492">
        <ele>125</ele>
        <time>2019-07-14T09:13:08Z</time>
      </trkpt>
      <trkpt lat="48.60603" lon="2.56479">
        <ele>124</ele>
        <time>2019-07-14T09:13:11Z</time>
      </trkpt>
      <trkpt lat="48.60612" lon="2.56462">
        <ele>121</ele>
        <time>2019-07-14T09:13:14Z</time>
      </trkpt>
      <trkpt lat="48.60621" lon="2.56456">
        <ele>124</ele>
        <time>2019-07-14T09:13:17Z</time>
      </trkpt>
      <trkpt lat="48.60632" lon="2.56447">
        <ele>129</ele>
        <time>2019-07-14T09:13:21Z</time>
      </trkpt>
      <trkpt lat="48.60638" lon="2.56431">
        <ele>129</ele>
        <time>2019-07-14T09:13:24Z</time>
      </trkpt>
      <trkpt lat="48.60644" lon="2.56415">
        <ele>129</ele>
        <time>2019-07-14T09:13:27Z</time>
      </trkpt>
      <trkpt lat="48.60647" lon="2.56398">
        <ele>130</ele>
        <time>2019-07-14T09:13:30Z</time>
      </trkpt>
      <trkpt lat="48.60649" lon="2.56379">
        <ele>130</ele>
        <time>2019-07-14T09:13:33Z</time>
      </trkpt>
      <trkpt lat="48.6065" lon="2.56365">
        <ele>130</ele>
        <time>2019-07-14T09:13:35Z</time>
      </trkpt>
      <trkpt lat="48.60652" lon="2.56352">
        <ele>131</ele>
        <time>2019-07-14T09:13:37Z</time>
      </trkpt>
      <trkpt lat="48.60654" lon="2.56337">
        <ele>133</ele>
        <time>2019-07-14T09:13:40Z</time>
      </trkpt>
      <trkpt lat="48.60656" lon="2.56321">
        <ele>133</ele>
        <time>2019-07-14T09:13:43Z</time>
      </trkpt>
      <trkpt lat="48.60647" lon="2.5631">
        <ele>134</ele>
        <time>2019-07-14T09:13:48Z</time>
      </trkpt>
      <trkpt lat="48.60637" lon="2.56309">
        <ele>134</ele>
        <time>2019-07-14T09:13:52Z</time>
      </trkpt>
      <trkpt lat="48.60627" lon="2.5631">
        <ele>134</ele>
        <time>2019-07-14T09:13:55Z</time>
      </trkpt>
      <trkpt lat="48.60619" lon="2.5632">
        <ele>133</ele>
        <time>2019-07-14T09:13:58Z</time>
      </trkpt>
      <trkpt lat="48.60613" lon="2.56337">
        <ele>135</ele>
        <time>2019-07-14T09:14:01Z</time>
      </trkpt>
      <trkpt lat="48.60612" lon="2.56352">
        <ele>134</ele>
        <time>2019-07-14T09:14:04Z</time>
      </trkpt>
      <trkpt lat="48.6061" lon="2.56354">
        <ele>134</ele>
        <time>2019-07-14T09:14:11Z</time>
      </trkpt>
      <trkpt lat="48.6061" lon="2.56354">
        <ele>134</ele>
        <time>2019-07-14T09:14:11Z</time>
      </trkpt>
      <trkpt lat="48.60645" lon="2.5634">
        <ele>140</ele>
        <time>2019-07-14T09:15:21Z</time>
      </trkpt>
      <trkpt lat="48.60624" lon="2.56344">
        <ele>140</ele>
        <time>2019-07-14T09:15:23Z</time>
      </trkpt>
      <trkpt lat="48.60634" lon="2.56344">
        <ele>139</ele>
        <time>2019-07-14T09:15:26Z</time>
      </trkpt>
      <trkpt lat="48.60634" lon="2.56344">
        <ele>139</ele>
        <time>2019-07-14T09:15:26Z</time>
      </trkpt>
      <trkpt lat="48.60634" lon="2.56344">
        <ele>139</ele>
        <time>2019-07-14T09:15:26Z</time>
      </trkpt>
    </trkseg>
  </trk>
</gpx>